<?xml version="1.0" encoding="UTF-8" standalone="no" ?>
<gpx xmlns="http://www.topografix.com/GPX/1/1" xmlns:xsi="http://www.w3.org/2001/XMLSchema-instance" xsi:schemaLocation="http://www.topografix.com/GPX/1/1 http://www.topografix.com/GPX/1/1/gpx.xsd" version="1.1" creator="VisuGPX - https://www.visugpx.com">
  <metadata>
    <name>Entraunes / Guillestre</name>
    <desc><![CDATA[D'Entraunes à Guillestre par le col de la Cayolle, Guillestre, le col de Varces]]></desc>
  </metadata>
  <wpt lat="44.18725" lon="6.74779">
    <ele>1258</ele>
    <name><![CDATA[Entraunes / Guillestre]]></name>
    <type><![CDATA[Generic]]></type>
  </wpt>
  <trk>
    <name><![CDATA[Entraunes / Guillestre on edp-parcours.com]]></name>
    <trkseg>
      <trkpt lat="44.18725" lon="6.74779">
        <ele>1258</ele>
        <time>2017-03-26T19:22:34Z</time>
      </trkpt>
      <trkpt lat="44.1886" lon="6.74871">
        <ele>1262</ele>
        <time>2017-03-26T19:22:49Z</time>
      </trkpt>
      <trkpt lat="44.18948" lon="6.74907">
        <ele>1270</ele>
        <time>2017-03-26T19:23:06Z</time>
      </trkpt>
      <trkpt lat="44.19017" lon="6.74881">
        <ele>1285</ele>
        <time>2017-03-26T19:23:26Z</time>
      </trkpt>
      <trkpt lat="44.1918" lon="6.74746">
        <ele>1284</ele>
        <time>2017-03-26T19:23:31Z</time>
      </trkpt>
      <trkpt lat="44.19276" lon="6.74746">
        <ele>1300</ele>
        <time>2017-03-26T19:23:50Z</time>
      </trkpt>
      <trkpt lat="44.19347" lon="6.74666">
        <ele>1302</ele>
        <time>2017-03-26T19:23:56Z</time>
      </trkpt>
      <trkpt lat="44.19469" lon="6.74629">
        <ele>1317</ele>
        <time>2017-03-26T19:23:58Z</time>
      </trkpt>
      <trkpt lat="44.19521" lon="6.74662">
        <ele>1331</ele>
        <time>2017-03-26T19:24:03Z</time>
      </trkpt>
      <trkpt lat="44.19552" lon="6.74587">
        <ele>1324</ele>
        <time>2017-03-26T19:24:12Z</time>
      </trkpt>
      <trkpt lat="44.19643" lon="6.74666">
        <ele>1342</ele>
        <time>2017-03-26T19:24:15Z</time>
      </trkpt>
      <trkpt lat="44.19561" lon="6.74632">
        <ele>1330</ele>
        <time>2017-03-26T19:24:19Z</time>
      </trkpt>
      <trkpt lat="44.19542" lon="6.74768">
        <ele>1368</ele>
        <time>2017-03-26T19:24:28Z</time>
      </trkpt>
      <trkpt lat="44.1948" lon="6.7476">
        <ele>1361</ele>
        <time>2017-03-26T19:24:34Z</time>
      </trkpt>
      <trkpt lat="44.19401" lon="6.74825">
        <ele>1358</ele>
        <time>2017-03-26T19:24:50Z</time>
      </trkpt>
      <trkpt lat="44.19473" lon="6.74803">
        <ele>1366</ele>
        <time>2017-03-26T19:24:57Z</time>
      </trkpt>
      <trkpt lat="44.19504" lon="6.74939">
        <ele>1398</ele>
        <time>2017-03-26T19:25:05Z</time>
      </trkpt>
      <trkpt lat="44.1954" lon="6.74936">
        <ele>1401</ele>
        <time>2017-03-26T19:25:10Z</time>
      </trkpt>
      <trkpt lat="44.19573" lon="6.74879">
        <ele>1388</ele>
        <time>2017-03-26T19:25:28Z</time>
      </trkpt>
      <trkpt lat="44.19618" lon="6.74831">
        <ele>1379</ele>
        <time>2017-03-26T19:25:32Z</time>
      </trkpt>
      <trkpt lat="44.19659" lon="6.74907">
        <ele>1403</ele>
        <time>2017-03-26T19:25:45Z</time>
      </trkpt>
      <trkpt lat="44.19683" lon="6.7493">
        <ele>1419</ele>
        <time>2017-03-26T19:25:52Z</time>
      </trkpt>
      <trkpt lat="44.19745" lon="6.74879">
        <ele>1407</ele>
        <time>2017-03-26T19:25:56Z</time>
      </trkpt>
      <trkpt lat="44.19768" lon="6.74858">
        <ele>1410</ele>
        <time>2017-03-26T19:26:07Z</time>
      </trkpt>
      <trkpt lat="44.19829" lon="6.74936">
        <ele>1433</ele>
        <time>2017-03-26T19:26:12Z</time>
      </trkpt>
      <trkpt lat="44.19855" lon="6.74887">
        <ele>1430</ele>
        <time>2017-03-26T19:26:24Z</time>
      </trkpt>
      <trkpt lat="44.19888" lon="6.74837">
        <ele>1432</ele>
        <time>2017-03-26T19:26:30Z</time>
      </trkpt>
      <trkpt lat="44.20041" lon="6.74809">
        <ele>1451</ele>
        <time>2017-03-26T19:26:48Z</time>
      </trkpt>
      <trkpt lat="44.20099" lon="6.74736">
        <ele>1448</ele>
        <time>2017-03-26T19:27:06Z</time>
      </trkpt>
      <trkpt lat="44.20138" lon="6.74737">
        <ele>1453</ele>
        <time>2017-03-26T19:27:08Z</time>
      </trkpt>
      <trkpt lat="44.20189" lon="6.74715">
        <ele>1465</ele>
        <time>2017-03-26T19:27:20Z</time>
      </trkpt>
      <trkpt lat="44.20242" lon="6.74655">
        <ele>1459</ele>
        <time>2017-03-26T19:27:29Z</time>
      </trkpt>
      <trkpt lat="44.20366" lon="6.74674">
        <ele>1494</ele>
        <time>2017-03-26T19:27:37Z</time>
      </trkpt>
      <trkpt lat="44.20393" lon="6.74601">
        <ele>1485</ele>
        <time>2017-03-26T19:27:55Z</time>
      </trkpt>
      <trkpt lat="44.2042" lon="6.74573">
        <ele>1483</ele>
        <time>2017-03-26T19:28:03Z</time>
      </trkpt>
      <trkpt lat="44.20462" lon="6.74616">
        <ele>1499</ele>
        <time>2017-03-26T19:28:23Z</time>
      </trkpt>
      <trkpt lat="44.20499" lon="6.7462">
        <ele>1500</ele>
        <time>2017-03-26T19:28:39Z</time>
      </trkpt>
      <trkpt lat="44.20677" lon="6.74574">
        <ele>1505</ele>
        <time>2017-03-26T19:28:52Z</time>
      </trkpt>
      <trkpt lat="44.20735" lon="6.7462">
        <ele>1525</ele>
        <time>2017-03-26T19:29:05Z</time>
      </trkpt>
      <trkpt lat="44.20854" lon="6.74488">
        <ele>1521</ele>
        <time>2017-03-26T19:29:25Z</time>
      </trkpt>
      <trkpt lat="44.20911" lon="6.74466">
        <ele>1522</ele>
        <time>2017-03-26T19:29:32Z</time>
      </trkpt>
      <trkpt lat="44.21011" lon="6.74649">
        <ele>1556</ele>
        <time>2017-03-26T19:29:50Z</time>
      </trkpt>
      <trkpt lat="44.21098" lon="6.74661">
        <ele>1547</ele>
        <time>2017-03-26T19:30:02Z</time>
      </trkpt>
      <trkpt lat="44.21132" lon="6.74707">
        <ele>1571</ele>
        <time>2017-03-26T19:30:18Z</time>
      </trkpt>
      <trkpt lat="44.2123" lon="6.74733">
        <ele>1572</ele>
        <time>2017-03-26T19:30:30Z</time>
      </trkpt>
      <trkpt lat="44.21329" lon="6.74782">
        <ele>1589</ele>
        <time>2017-03-26T19:30:50Z</time>
      </trkpt>
      <trkpt lat="44.21404" lon="6.74783">
        <ele>1586</ele>
        <time>2017-03-26T19:30:54Z</time>
      </trkpt>
      <trkpt lat="44.2152" lon="6.74809">
        <ele>1585</ele>
        <time>2017-03-26T19:31:08Z</time>
      </trkpt>
      <trkpt lat="44.21604" lon="6.74864">
        <ele>1588</ele>
        <time>2017-03-26T19:31:17Z</time>
      </trkpt>
      <trkpt lat="44.21635" lon="6.74913">
        <ele>1591</ele>
        <time>2017-03-26T19:31:22Z</time>
      </trkpt>
      <trkpt lat="44.21731" lon="6.74881">
        <ele>1596</ele>
        <time>2017-03-26T19:31:37Z</time>
      </trkpt>
      <trkpt lat="44.21858" lon="6.74778">
        <ele>1575</ele>
        <time>2017-03-26T19:31:49Z</time>
      </trkpt>
      <trkpt lat="44.2194" lon="6.74807">
        <ele>1591</ele>
        <time>2017-03-26T19:32:04Z</time>
      </trkpt>
      <trkpt lat="44.2199" lon="6.74673">
        <ele>1600</ele>
        <time>2017-03-26T19:32:13Z</time>
      </trkpt>
      <trkpt lat="44.21983" lon="6.74619">
        <ele>1604</ele>
        <time>2017-03-26T19:32:16Z</time>
      </trkpt>
      <trkpt lat="44.21923" lon="6.74578">
        <ele>1601</ele>
        <time>2017-03-26T19:32:32Z</time>
      </trkpt>
      <trkpt lat="44.21882" lon="6.74553">
        <ele>1589</ele>
        <time>2017-03-26T19:32:34Z</time>
      </trkpt>
      <trkpt lat="44.21969" lon="6.74565">
        <ele>1622</ele>
        <time>2017-03-26T19:32:41Z</time>
      </trkpt>
      <trkpt lat="44.22042" lon="6.74636">
        <ele>1635</ele>
        <time>2017-03-26T19:32:47Z</time>
      </trkpt>
      <trkpt lat="44.22155" lon="6.74802">
        <ele>1642</ele>
        <time>2017-03-26T19:33:05Z</time>
      </trkpt>
      <trkpt lat="44.22372" lon="6.74814">
        <ele>1673</ele>
        <time>2017-03-26T19:33:23Z</time>
      </trkpt>
      <trkpt lat="44.22546" lon="6.74866">
        <ele>1680</ele>
        <time>2017-03-26T19:33:41Z</time>
      </trkpt>
      <trkpt lat="44.22667" lon="6.74886">
        <ele>1692</ele>
        <time>2017-03-26T19:33:54Z</time>
      </trkpt>
      <trkpt lat="44.22757" lon="6.74874">
        <ele>1708</ele>
        <time>2017-03-26T19:34:02Z</time>
      </trkpt>
      <trkpt lat="44.2284" lon="6.74881">
        <ele>1716</ele>
        <time>2017-03-26T19:34:12Z</time>
      </trkpt>
      <trkpt lat="44.22871" lon="6.74906">
        <ele>1715</ele>
        <time>2017-03-26T19:34:31Z</time>
      </trkpt>
      <trkpt lat="44.2298" lon="6.74875">
        <ele>1728</ele>
        <time>2017-03-26T19:34:38Z</time>
      </trkpt>
      <trkpt lat="44.23029" lon="6.74886">
        <ele>1742</ele>
        <time>2017-03-26T19:34:56Z</time>
      </trkpt>
      <trkpt lat="44.23056" lon="6.74953">
        <ele>1730</ele>
        <time>2017-03-26T19:35:09Z</time>
      </trkpt>
      <trkpt lat="44.23137" lon="6.75007">
        <ele>1747</ele>
        <time>2017-03-26T19:35:21Z</time>
      </trkpt>
      <trkpt lat="44.23154" lon="6.75067">
        <ele>1746</ele>
        <time>2017-03-26T19:35:27Z</time>
      </trkpt>
      <trkpt lat="44.23192" lon="6.75103">
        <ele>1753</ele>
        <time>2017-03-26T19:35:34Z</time>
      </trkpt>
      <trkpt lat="44.23247" lon="6.75109">
        <ele>1760</ele>
        <time>2017-03-26T19:35:45Z</time>
      </trkpt>
      <trkpt lat="44.23257" lon="6.75138">
        <ele>1768</ele>
        <time>2017-03-26T19:35:53Z</time>
      </trkpt>
      <trkpt lat="44.23276" lon="6.75192">
        <ele>1760</ele>
        <time>2017-03-26T19:36:09Z</time>
      </trkpt>
      <trkpt lat="44.23492" lon="6.75241">
        <ele>1778</ele>
        <time>2017-03-26T19:36:27Z</time>
      </trkpt>
      <trkpt lat="44.23588" lon="6.75111">
        <ele>1787</ele>
        <time>2017-03-26T19:36:40Z</time>
      </trkpt>
      <trkpt lat="44.2373" lon="6.75158">
        <ele>1791</ele>
        <time>2017-03-26T19:36:58Z</time>
      </trkpt>
      <trkpt lat="44.2382" lon="6.75121">
        <ele>1803</ele>
        <time>2017-03-26T19:37:15Z</time>
      </trkpt>
      <trkpt lat="44.23853" lon="6.75106">
        <ele>1813</ele>
        <time>2017-03-26T19:37:21Z</time>
      </trkpt>
      <trkpt lat="44.239" lon="6.75151">
        <ele>1811</ele>
        <time>2017-03-26T19:37:28Z</time>
      </trkpt>
      <trkpt lat="44.24028" lon="6.75199">
        <ele>1824</ele>
        <time>2017-03-26T19:37:39Z</time>
      </trkpt>
      <trkpt lat="44.24158" lon="6.7524">
        <ele>1837</ele>
        <time>2017-03-26T19:37:52Z</time>
      </trkpt>
      <trkpt lat="44.24208" lon="6.75255">
        <ele>1840</ele>
        <time>2017-03-26T19:37:59Z</time>
      </trkpt>
      <trkpt lat="44.24246" lon="6.75348">
        <ele>1837</ele>
        <time>2017-03-26T19:38:17Z</time>
      </trkpt>
      <trkpt lat="44.24356" lon="6.75664">
        <ele>1867</ele>
        <time>2017-03-26T19:38:24Z</time>
      </trkpt>
      <trkpt lat="44.24488" lon="6.75715">
        <ele>1878</ele>
        <time>2017-03-26T19:38:39Z</time>
      </trkpt>
      <trkpt lat="44.24437" lon="6.7565">
        <ele>1879</ele>
        <time>2017-03-26T19:38:54Z</time>
      </trkpt>
      <trkpt lat="44.24462" lon="6.75561">
        <ele>1886</ele>
        <time>2017-03-26T19:39:05Z</time>
      </trkpt>
      <trkpt lat="44.24405" lon="6.75413">
        <ele>1892</ele>
        <time>2017-03-26T19:39:24Z</time>
      </trkpt>
      <trkpt lat="44.24417" lon="6.75407">
        <ele>1906</ele>
        <time>2017-03-26T19:39:40Z</time>
      </trkpt>
      <trkpt lat="44.2455" lon="6.75532">
        <ele>1913</ele>
        <time>2017-03-26T19:39:42Z</time>
      </trkpt>
      <trkpt lat="44.24644" lon="6.75622">
        <ele>1919</ele>
        <time>2017-03-26T19:39:55Z</time>
      </trkpt>
      <trkpt lat="44.24684" lon="6.75853">
        <ele>1941</ele>
        <time>2017-03-26T19:40:12Z</time>
      </trkpt>
      <trkpt lat="44.24698" lon="6.75973">
        <ele>1938</ele>
        <time>2017-03-26T19:40:21Z</time>
      </trkpt>
      <trkpt lat="44.2476" lon="6.76024">
        <ele>1959</ele>
        <time>2017-03-26T19:40:24Z</time>
      </trkpt>
      <trkpt lat="44.24841" lon="6.76181">
        <ele>1961</ele>
        <time>2017-03-26T19:40:28Z</time>
      </trkpt>
      <trkpt lat="44.24911" lon="6.76377">
        <ele>1969</ele>
        <time>2017-03-26T19:40:32Z</time>
      </trkpt>
      <trkpt lat="44.24945" lon="6.7654">
        <ele>1986</ele>
        <time>2017-03-26T19:40:34Z</time>
      </trkpt>
      <trkpt lat="44.24971" lon="6.76556">
        <ele>1990</ele>
        <time>2017-03-26T19:40:48Z</time>
      </trkpt>
      <trkpt lat="44.24993" lon="6.76485">
        <ele>1991</ele>
        <time>2017-03-26T19:41:08Z</time>
      </trkpt>
      <trkpt lat="44.24981" lon="6.7632">
        <ele>2001</ele>
        <time>2017-03-26T19:41:10Z</time>
      </trkpt>
      <trkpt lat="44.24911" lon="6.75929">
        <ele>2026</ele>
        <time>2017-03-26T19:41:21Z</time>
      </trkpt>
      <trkpt lat="44.24838" lon="6.75791">
        <ele>2047</ele>
        <time>2017-03-26T19:41:39Z</time>
      </trkpt>
      <trkpt lat="44.24829" lon="6.75709">
        <ele>2011</ele>
        <time>2017-03-26T19:41:50Z</time>
      </trkpt>
      <trkpt lat="44.24998" lon="6.75658">
        <ele>2066</ele>
        <time>2017-03-26T19:42:05Z</time>
      </trkpt>
      <trkpt lat="44.25108" lon="6.75578">
        <ele>2067</ele>
        <time>2017-03-26T19:42:10Z</time>
      </trkpt>
      <trkpt lat="44.25197" lon="6.75462">
        <ele>2079</ele>
        <time>2017-03-26T19:42:20Z</time>
      </trkpt>
      <trkpt lat="44.25251" lon="6.7541">
        <ele>2093</ele>
        <time>2017-03-26T19:42:27Z</time>
      </trkpt>
      <trkpt lat="44.2523" lon="6.75308">
        <ele>2083</ele>
        <time>2017-03-26T19:42:47Z</time>
      </trkpt>
      <trkpt lat="44.25336" lon="6.75125">
        <ele>2127</ele>
        <time>2017-03-26T19:42:49Z</time>
      </trkpt>
      <trkpt lat="44.25345" lon="6.75066">
        <ele>2126</ele>
        <time>2017-03-26T19:42:52Z</time>
      </trkpt>
      <trkpt lat="44.2531" lon="6.74995">
        <ele>2110</ele>
        <time>2017-03-26T19:43:03Z</time>
      </trkpt>
      <trkpt lat="44.25373" lon="6.7502">
        <ele>2136</ele>
        <time>2017-03-26T19:43:19Z</time>
      </trkpt>
      <trkpt lat="44.25371" lon="6.75121">
        <ele>2132</ele>
        <time>2017-03-26T19:43:35Z</time>
      </trkpt>
      <trkpt lat="44.2536" lon="6.75343">
        <ele>2145</ele>
        <time>2017-03-26T19:43:50Z</time>
      </trkpt>
      <trkpt lat="44.25378" lon="6.75444">
        <ele>2145</ele>
        <time>2017-03-26T19:43:57Z</time>
      </trkpt>
      <trkpt lat="44.25389" lon="6.75409">
        <ele>2151</ele>
        <time>2017-03-26T19:44:13Z</time>
      </trkpt>
      <trkpt lat="44.25415" lon="6.75262">
        <ele>2158</ele>
        <time>2017-03-26T19:44:33Z</time>
      </trkpt>
      <trkpt lat="44.25481" lon="6.75143">
        <ele>2182</ele>
        <time>2017-03-26T19:44:51Z</time>
      </trkpt>
      <trkpt lat="44.25419" lon="6.74807">
        <ele>2214</ele>
        <time>2017-03-26T19:45:00Z</time>
      </trkpt>
      <trkpt lat="44.25351" lon="6.74802">
        <ele>2193</ele>
        <time>2017-03-26T19:45:03Z</time>
      </trkpt>
      <trkpt lat="44.25337" lon="6.74784">
        <ele>2196</ele>
        <time>2017-03-26T19:45:09Z</time>
      </trkpt>
      <trkpt lat="44.25385" lon="6.74742">
        <ele>2220</ele>
        <time>2017-03-26T19:45:21Z</time>
      </trkpt>
      <trkpt lat="44.25467" lon="6.74821">
        <ele>2225</ele>
        <time>2017-03-26T19:45:23Z</time>
      </trkpt>
      <trkpt lat="44.25546" lon="6.75129">
        <ele>2223</ele>
        <time>2017-03-26T19:45:32Z</time>
      </trkpt>
      <trkpt lat="44.25591" lon="6.75183">
        <ele>2246</ele>
        <time>2017-03-26T19:45:34Z</time>
      </trkpt>
      <trkpt lat="44.25567" lon="6.75145">
        <ele>2228</ele>
        <time>2017-03-26T19:45:54Z</time>
      </trkpt>
      <trkpt lat="44.25549" lon="6.74956">
        <ele>2245</ele>
        <time>2017-03-26T19:46:05Z</time>
      </trkpt>
      <trkpt lat="44.25546" lon="6.74597">
        <ele>2283</ele>
        <time>2017-03-26T19:46:25Z</time>
      </trkpt>
      <trkpt lat="44.25471" lon="6.745">
        <ele>2290</ele>
        <time>2017-03-26T19:46:39Z</time>
      </trkpt>
      <trkpt lat="44.25493" lon="6.74493">
        <ele>2303</ele>
        <time>2017-03-26T19:46:46Z</time>
      </trkpt>
      <trkpt lat="44.25586" lon="6.74572">
        <ele>2297</ele>
        <time>2017-03-26T19:47:01Z</time>
      </trkpt>
      <trkpt lat="44.25692" lon="6.74513">
        <ele>2313</ele>
        <time>2017-03-26T19:47:08Z</time>
      </trkpt>
      <trkpt lat="44.25803" lon="6.74493">
        <ele>2320</ele>
        <time>2017-03-26T19:47:16Z</time>
      </trkpt>
      <trkpt lat="44.25926" lon="6.74394">
        <ele>2328</ele>
        <time>2017-03-26T19:47:29Z</time>
      </trkpt>
      <trkpt lat="44.26108" lon="6.74265">
        <ele>2311</ele>
        <time>2017-03-26T19:47:36Z</time>
      </trkpt>
      <trkpt lat="44.26259" lon="6.74255">
        <ele>2296</ele>
        <time>2017-03-26T19:47:46Z</time>
      </trkpt>
      <trkpt lat="44.26331" lon="6.74224">
        <ele>2297</ele>
        <time>2017-03-26T19:47:54Z</time>
      </trkpt>
      <trkpt lat="44.26355" lon="6.74209">
        <ele>2295</ele>
        <time>2017-03-26T19:48:06Z</time>
      </trkpt>
      <trkpt lat="44.26369" lon="6.7427">
        <ele>2286</ele>
        <time>2017-03-26T19:48:22Z</time>
      </trkpt>
      <trkpt lat="44.26429" lon="6.74449">
        <ele>2274</ele>
        <time>2017-03-26T19:48:27Z</time>
      </trkpt>
      <trkpt lat="44.2643" lon="6.74498">
        <ele>2273</ele>
        <time>2017-03-26T19:48:43Z</time>
      </trkpt>
      <trkpt lat="44.26367" lon="6.74515">
        <ele>2268</ele>
        <time>2017-03-26T19:49:00Z</time>
      </trkpt>
      <trkpt lat="44.26355" lon="6.74557">
        <ele>2267</ele>
        <time>2017-03-26T19:49:02Z</time>
      </trkpt>
      <trkpt lat="44.26394" lon="6.74602">
        <ele>2264</ele>
        <time>2017-03-26T19:49:22Z</time>
      </trkpt>
      <trkpt lat="44.2665" lon="6.74609">
        <ele>2243</ele>
        <time>2017-03-26T19:49:32Z</time>
      </trkpt>
      <trkpt lat="44.26848" lon="6.74632">
        <ele>2224</ele>
        <time>2017-03-26T19:49:51Z</time>
      </trkpt>
      <trkpt lat="44.26943" lon="6.74637">
        <ele>2218</ele>
        <time>2017-03-26T19:50:07Z</time>
      </trkpt>
      <trkpt lat="44.2703" lon="6.74675">
        <ele>2207</ele>
        <time>2017-03-26T19:50:15Z</time>
      </trkpt>
      <trkpt lat="44.27085" lon="6.74654">
        <ele>2204</ele>
        <time>2017-03-26T19:50:29Z</time>
      </trkpt>
      <trkpt lat="44.27146" lon="6.74556">
        <ele>2204</ele>
        <time>2017-03-26T19:50:36Z</time>
      </trkpt>
      <trkpt lat="44.27199" lon="6.74491">
        <ele>2205</ele>
        <time>2017-03-26T19:50:38Z</time>
      </trkpt>
      <trkpt lat="44.27303" lon="6.7449">
        <ele>2190</ele>
        <time>2017-03-26T19:50:45Z</time>
      </trkpt>
      <trkpt lat="44.27362" lon="6.74509">
        <ele>2173</ele>
        <time>2017-03-26T19:51:05Z</time>
      </trkpt>
      <trkpt lat="44.27408" lon="6.7448">
        <ele>2183</ele>
        <time>2017-03-26T19:51:20Z</time>
      </trkpt>
      <trkpt lat="44.27474" lon="6.74493">
        <ele>2178</ele>
        <time>2017-03-26T19:51:36Z</time>
      </trkpt>
      <trkpt lat="44.27643" lon="6.74496">
        <ele>2163</ele>
        <time>2017-03-26T19:51:48Z</time>
      </trkpt>
      <trkpt lat="44.27726" lon="6.74411">
        <ele>2161</ele>
        <time>2017-03-26T19:52:03Z</time>
      </trkpt>
      <trkpt lat="44.27782" lon="6.74436">
        <ele>2139</ele>
        <time>2017-03-26T19:52:22Z</time>
      </trkpt>
      <trkpt lat="44.27766" lon="6.74519">
        <ele>2134</ele>
        <time>2017-03-26T19:52:30Z</time>
      </trkpt>
      <trkpt lat="44.27644" lon="6.74585">
        <ele>2129</ele>
        <time>2017-03-26T19:52:38Z</time>
      </trkpt>
      <trkpt lat="44.27646" lon="6.74611">
        <ele>2128</ele>
        <time>2017-03-26T19:52:50Z</time>
      </trkpt>
      <trkpt lat="44.2768" lon="6.74607">
        <ele>2125</ele>
        <time>2017-03-26T19:53:08Z</time>
      </trkpt>
      <trkpt lat="44.27779" lon="6.74633">
        <ele>2119</ele>
        <time>2017-03-26T19:53:24Z</time>
      </trkpt>
      <trkpt lat="44.27899" lon="6.74627">
        <ele>2112</ele>
        <time>2017-03-26T19:53:33Z</time>
      </trkpt>
      <trkpt lat="44.27925" lon="6.74503">
        <ele>2103</ele>
        <time>2017-03-26T19:53:53Z</time>
      </trkpt>
      <trkpt lat="44.27884" lon="6.74352">
        <ele>2097</ele>
        <time>2017-03-26T19:54:12Z</time>
      </trkpt>
      <trkpt lat="44.27868" lon="6.74232">
        <ele>2088</ele>
        <time>2017-03-26T19:54:31Z</time>
      </trkpt>
      <trkpt lat="44.27977" lon="6.7414">
        <ele>2074</ele>
        <time>2017-03-26T19:54:39Z</time>
      </trkpt>
      <trkpt lat="44.28017" lon="6.74143">
        <ele>2067</ele>
        <time>2017-03-26T19:54:52Z</time>
      </trkpt>
      <trkpt lat="44.28034" lon="6.74175">
        <ele>2063</ele>
        <time>2017-03-26T19:54:57Z</time>
      </trkpt>
      <trkpt lat="44.28096" lon="6.74276">
        <ele>2058</ele>
        <time>2017-03-26T19:54:59Z</time>
      </trkpt>
      <trkpt lat="44.28113" lon="6.74319">
        <ele>2052</ele>
        <time>2017-03-26T19:55:04Z</time>
      </trkpt>
      <trkpt lat="44.28068" lon="6.74425">
        <ele>2044</ele>
        <time>2017-03-26T19:55:21Z</time>
      </trkpt>
      <trkpt lat="44.28027" lon="6.74506">
        <ele>2059</ele>
        <time>2017-03-26T19:55:41Z</time>
      </trkpt>
      <trkpt lat="44.28043" lon="6.74543">
        <ele>2056</ele>
        <time>2017-03-26T19:55:56Z</time>
      </trkpt>
      <trkpt lat="44.28185" lon="6.74617">
        <ele>2030</ele>
        <time>2017-03-26T19:56:11Z</time>
      </trkpt>
      <trkpt lat="44.28289" lon="6.74615">
        <ele>2021</ele>
        <time>2017-03-26T19:56:23Z</time>
      </trkpt>
      <trkpt lat="44.2837" lon="6.7454">
        <ele>2003</ele>
        <time>2017-03-26T19:56:37Z</time>
      </trkpt>
      <trkpt lat="44.28486" lon="6.74602">
        <ele>2006</ele>
        <time>2017-03-26T19:56:56Z</time>
      </trkpt>
      <trkpt lat="44.28514" lon="6.74563">
        <ele>1991</ele>
        <time>2017-03-26T19:57:02Z</time>
      </trkpt>
      <trkpt lat="44.28496" lon="6.74504">
        <ele>1992</ele>
        <time>2017-03-26T19:57:14Z</time>
      </trkpt>
      <trkpt lat="44.28518" lon="6.74475">
        <ele>1983</ele>
        <time>2017-03-26T19:57:21Z</time>
      </trkpt>
      <trkpt lat="44.28554" lon="6.74414">
        <ele>1969</ele>
        <time>2017-03-26T19:57:35Z</time>
      </trkpt>
      <trkpt lat="44.28429" lon="6.74391">
        <ele>1973</ele>
        <time>2017-03-26T19:57:48Z</time>
      </trkpt>
      <trkpt lat="44.28378" lon="6.7438">
        <ele>1974</ele>
        <time>2017-03-26T19:58:00Z</time>
      </trkpt>
      <trkpt lat="44.28357" lon="6.74302">
        <ele>1970</ele>
        <time>2017-03-26T19:58:19Z</time>
      </trkpt>
      <trkpt lat="44.28413" lon="6.74235">
        <ele>1971</ele>
        <time>2017-03-26T19:58:27Z</time>
      </trkpt>
      <trkpt lat="44.28525" lon="6.74203">
        <ele>1965</ele>
        <time>2017-03-26T19:58:44Z</time>
      </trkpt>
      <trkpt lat="44.28645" lon="6.74236">
        <ele>1959</ele>
        <time>2017-03-26T19:58:46Z</time>
      </trkpt>
      <trkpt lat="44.28709" lon="6.7422">
        <ele>1959</ele>
        <time>2017-03-26T19:58:49Z</time>
      </trkpt>
      <trkpt lat="44.28791" lon="6.74249">
        <ele>1958</ele>
        <time>2017-03-26T19:59:02Z</time>
      </trkpt>
      <trkpt lat="44.28999" lon="6.74368">
        <ele>1935</ele>
        <time>2017-03-26T19:59:17Z</time>
      </trkpt>
      <trkpt lat="44.29146" lon="6.74388">
        <ele>1937</ele>
        <time>2017-03-26T19:59:29Z</time>
      </trkpt>
      <trkpt lat="44.29264" lon="6.7439">
        <ele>1939</ele>
        <time>2017-03-26T19:59:43Z</time>
      </trkpt>
      <trkpt lat="44.29411" lon="6.7438">
        <ele>1925</ele>
        <time>2017-03-26T19:59:50Z</time>
      </trkpt>
      <trkpt lat="44.29666" lon="6.74376">
        <ele>1912</ele>
        <time>2017-03-26T20:00:10Z</time>
      </trkpt>
      <trkpt lat="44.29776" lon="6.74429">
        <ele>1896</ele>
        <time>2017-03-26T20:00:30Z</time>
      </trkpt>
      <trkpt lat="44.29903" lon="6.74407">
        <ele>1902</ele>
        <time>2017-03-26T20:00:38Z</time>
      </trkpt>
      <trkpt lat="44.30167" lon="6.7445">
        <ele>1882</ele>
        <time>2017-03-26T20:00:50Z</time>
      </trkpt>
      <trkpt lat="44.30328" lon="6.74397">
        <ele>1885</ele>
        <time>2017-03-26T20:01:08Z</time>
      </trkpt>
      <trkpt lat="44.30364" lon="6.74423">
        <ele>1872</ele>
        <time>2017-03-26T20:01:28Z</time>
      </trkpt>
      <trkpt lat="44.30465" lon="6.74386">
        <ele>1870</ele>
        <time>2017-03-26T20:01:31Z</time>
      </trkpt>
      <trkpt lat="44.30557" lon="6.74284">
        <ele>1867</ele>
        <time>2017-03-26T20:01:46Z</time>
      </trkpt>
      <trkpt lat="44.30691" lon="6.74218">
        <ele>1858</ele>
        <time>2017-03-26T20:01:52Z</time>
      </trkpt>
      <trkpt lat="44.30776" lon="6.74184">
        <ele>1848</ele>
        <time>2017-03-26T20:01:54Z</time>
      </trkpt>
      <trkpt lat="44.30819" lon="6.74161">
        <ele>1851</ele>
        <time>2017-03-26T20:01:57Z</time>
      </trkpt>
      <trkpt lat="44.30828" lon="6.74102">
        <ele>1854</ele>
        <time>2017-03-26T20:02:09Z</time>
      </trkpt>
      <trkpt lat="44.30884" lon="6.74045">
        <ele>1844</ele>
        <time>2017-03-26T20:02:28Z</time>
      </trkpt>
      <trkpt lat="44.30946" lon="6.73981">
        <ele>1835</ele>
        <time>2017-03-26T20:02:40Z</time>
      </trkpt>
      <trkpt lat="44.31014" lon="6.73815">
        <ele>1827</ele>
        <time>2017-03-26T20:02:50Z</time>
      </trkpt>
      <trkpt lat="44.31044" lon="6.7371">
        <ele>1827</ele>
        <time>2017-03-26T20:02:53Z</time>
      </trkpt>
      <trkpt lat="44.31111" lon="6.73642">
        <ele>1810</ele>
        <time>2017-03-26T20:03:10Z</time>
      </trkpt>
      <trkpt lat="44.31085" lon="6.73737">
        <ele>1802</ele>
        <time>2017-03-26T20:03:14Z</time>
      </trkpt>
      <trkpt lat="44.31133" lon="6.73684">
        <ele>1798</ele>
        <time>2017-03-26T20:03:19Z</time>
      </trkpt>
      <trkpt lat="44.31141" lon="6.73717">
        <ele>1796</ele>
        <time>2017-03-26T20:03:33Z</time>
      </trkpt>
      <trkpt lat="44.31073" lon="6.73894">
        <ele>1804</ele>
        <time>2017-03-26T20:03:50Z</time>
      </trkpt>
      <trkpt lat="44.31144" lon="6.73976">
        <ele>1784</ele>
        <time>2017-03-26T20:03:56Z</time>
      </trkpt>
      <trkpt lat="44.3118" lon="6.73957">
        <ele>1789</ele>
        <time>2017-03-26T20:03:59Z</time>
      </trkpt>
      <trkpt lat="44.31205" lon="6.73891">
        <ele>1786</ele>
        <time>2017-03-26T20:04:11Z</time>
      </trkpt>
      <trkpt lat="44.31315" lon="6.73608">
        <ele>1782</ele>
        <time>2017-03-26T20:04:27Z</time>
      </trkpt>
      <trkpt lat="44.3141" lon="6.7342">
        <ele>1781</ele>
        <time>2017-03-26T20:04:43Z</time>
      </trkpt>
      <trkpt lat="44.31624" lon="6.73036">
        <ele>1772</ele>
        <time>2017-03-26T20:04:51Z</time>
      </trkpt>
      <trkpt lat="44.3174" lon="6.72861">
        <ele>1763</ele>
        <time>2017-03-26T20:05:04Z</time>
      </trkpt>
      <trkpt lat="44.31796" lon="6.72691">
        <ele>1764</ele>
        <time>2017-03-26T20:05:08Z</time>
      </trkpt>
      <trkpt lat="44.319" lon="6.72328">
        <ele>1747</ele>
        <time>2017-03-26T20:05:24Z</time>
      </trkpt>
      <trkpt lat="44.31951" lon="6.72231">
        <ele>1755</ele>
        <time>2017-03-26T20:05:27Z</time>
      </trkpt>
      <trkpt lat="44.31962" lon="6.72105">
        <ele>1759</ele>
        <time>2017-03-26T20:05:37Z</time>
      </trkpt>
      <trkpt lat="44.31939" lon="6.71911">
        <ele>1760</ele>
        <time>2017-03-26T20:05:49Z</time>
      </trkpt>
      <trkpt lat="44.31928" lon="6.71754">
        <ele>1752</ele>
        <time>2017-03-26T20:05:55Z</time>
      </trkpt>
      <trkpt lat="44.31981" lon="6.71586">
        <ele>1749</ele>
        <time>2017-03-26T20:05:57Z</time>
      </trkpt>
      <trkpt lat="44.32024" lon="6.71551">
        <ele>1756</ele>
        <time>2017-03-26T20:06:00Z</time>
      </trkpt>
      <trkpt lat="44.32019" lon="6.71492">
        <ele>1745</ele>
        <time>2017-03-26T20:06:02Z</time>
      </trkpt>
      <trkpt lat="44.32076" lon="6.71245">
        <ele>1730</ele>
        <time>2017-03-26T20:06:19Z</time>
      </trkpt>
      <trkpt lat="44.32144" lon="6.71007">
        <ele>1733</ele>
        <time>2017-03-26T20:06:39Z</time>
      </trkpt>
      <trkpt lat="44.32192" lon="6.70937">
        <ele>1745</ele>
        <time>2017-03-26T20:06:47Z</time>
      </trkpt>
      <trkpt lat="44.3217" lon="6.7088">
        <ele>1743</ele>
        <time>2017-03-26T20:07:04Z</time>
      </trkpt>
      <trkpt lat="44.32135" lon="6.70621">
        <ele>1713</ele>
        <time>2017-03-26T20:07:08Z</time>
      </trkpt>
      <trkpt lat="44.3214" lon="6.70445">
        <ele>1701</ele>
        <time>2017-03-26T20:07:23Z</time>
      </trkpt>
      <trkpt lat="44.32183" lon="6.70375">
        <ele>1713</ele>
        <time>2017-03-26T20:07:33Z</time>
      </trkpt>
      <trkpt lat="44.32207" lon="6.70247">
        <ele>1696</ele>
        <time>2017-03-26T20:07:35Z</time>
      </trkpt>
      <trkpt lat="44.32173" lon="6.70042">
        <ele>1695</ele>
        <time>2017-03-26T20:07:44Z</time>
      </trkpt>
      <trkpt lat="44.32134" lon="6.69861">
        <ele>1689</ele>
        <time>2017-03-26T20:08:00Z</time>
      </trkpt>
      <trkpt lat="44.32066" lon="6.69649">
        <ele>1674</ele>
        <time>2017-03-26T20:08:08Z</time>
      </trkpt>
      <trkpt lat="44.32001" lon="6.69523">
        <ele>1680</ele>
        <time>2017-03-26T20:08:25Z</time>
      </trkpt>
      <trkpt lat="44.31943" lon="6.69427">
        <ele>1664</ele>
        <time>2017-03-26T20:08:34Z</time>
      </trkpt>
      <trkpt lat="44.3192" lon="6.69333">
        <ele>1670</ele>
        <time>2017-03-26T20:08:44Z</time>
      </trkpt>
      <trkpt lat="44.3188" lon="6.69215">
        <ele>1656</ele>
        <time>2017-03-26T20:09:00Z</time>
      </trkpt>
      <trkpt lat="44.3192" lon="6.69072">
        <ele>1666</ele>
        <time>2017-03-26T20:09:06Z</time>
      </trkpt>
      <trkpt lat="44.31938" lon="6.68851">
        <ele>1663</ele>
        <time>2017-03-26T20:09:15Z</time>
      </trkpt>
      <trkpt lat="44.31857" lon="6.6863">
        <ele>1656</ele>
        <time>2017-03-26T20:09:34Z</time>
      </trkpt>
      <trkpt lat="44.31905" lon="6.68093">
        <ele>1633</ele>
        <time>2017-03-26T20:09:37Z</time>
      </trkpt>
      <trkpt lat="44.31961" lon="6.68005">
        <ele>1640</ele>
        <time>2017-03-26T20:09:47Z</time>
      </trkpt>
      <trkpt lat="44.3196" lon="6.67919">
        <ele>1630</ele>
        <time>2017-03-26T20:10:05Z</time>
      </trkpt>
      <trkpt lat="44.32044" lon="6.6776">
        <ele>1634</ele>
        <time>2017-03-26T20:10:07Z</time>
      </trkpt>
      <trkpt lat="44.32044" lon="6.67593">
        <ele>1618</ele>
        <time>2017-03-26T20:10:19Z</time>
      </trkpt>
      <trkpt lat="44.32118" lon="6.67442">
        <ele>1626</ele>
        <time>2017-03-26T20:10:21Z</time>
      </trkpt>
      <trkpt lat="44.32151" lon="6.67234">
        <ele>1610</ele>
        <time>2017-03-26T20:10:38Z</time>
      </trkpt>
      <trkpt lat="44.32148" lon="6.67073">
        <ele>1591</ele>
        <time>2017-03-26T20:10:47Z</time>
      </trkpt>
      <trkpt lat="44.32191" lon="6.6689">
        <ele>1585</ele>
        <time>2017-03-26T20:10:54Z</time>
      </trkpt>
      <trkpt lat="44.32351" lon="6.66734">
        <ele>1597</ele>
        <time>2017-03-26T20:11:14Z</time>
      </trkpt>
      <trkpt lat="44.32335" lon="6.66576">
        <ele>1583</ele>
        <time>2017-03-26T20:11:27Z</time>
      </trkpt>
      <trkpt lat="44.32359" lon="6.66415">
        <ele>1574</ele>
        <time>2017-03-26T20:11:35Z</time>
      </trkpt>
      <trkpt lat="44.32306" lon="6.66596">
        <ele>1560</ele>
        <time>2017-03-26T20:11:51Z</time>
      </trkpt>
      <trkpt lat="44.32307" lon="6.66314">
        <ele>1549</ele>
        <time>2017-03-26T20:12:00Z</time>
      </trkpt>
      <trkpt lat="44.32281" lon="6.66047">
        <ele>1552</ele>
        <time>2017-03-26T20:12:20Z</time>
      </trkpt>
      <trkpt lat="44.32205" lon="6.66009">
        <ele>1526</ele>
        <time>2017-03-26T20:12:28Z</time>
      </trkpt>
      <trkpt lat="44.3209" lon="6.6584">
        <ele>1517</ele>
        <time>2017-03-26T20:12:43Z</time>
      </trkpt>
      <trkpt lat="44.32001" lon="6.6567">
        <ele>1506</ele>
        <time>2017-03-26T20:12:48Z</time>
      </trkpt>
      <trkpt lat="44.31966" lon="6.65584">
        <ele>1496</ele>
        <time>2017-03-26T20:13:06Z</time>
      </trkpt>
      <trkpt lat="44.31965" lon="6.65447">
        <ele>1490</ele>
        <time>2017-03-26T20:13:15Z</time>
      </trkpt>
      <trkpt lat="44.3195" lon="6.65142">
        <ele>1485</ele>
        <time>2017-03-26T20:13:17Z</time>
      </trkpt>
      <trkpt lat="44.31906" lon="6.64565">
        <ele>1462</ele>
        <time>2017-03-26T20:13:25Z</time>
      </trkpt>
      <trkpt lat="44.31842" lon="6.64259">
        <ele>1467</ele>
        <time>2017-03-26T20:13:42Z</time>
      </trkpt>
      <trkpt lat="44.31825" lon="6.63777">
        <ele>1463</ele>
        <time>2017-03-26T20:14:01Z</time>
      </trkpt>
      <trkpt lat="44.31837" lon="6.63465">
        <ele>1442</ele>
        <time>2017-03-26T20:14:08Z</time>
      </trkpt>
      <trkpt lat="44.31882" lon="6.63123">
        <ele>1426</ele>
        <time>2017-03-26T20:14:12Z</time>
      </trkpt>
      <trkpt lat="44.31858" lon="6.63002">
        <ele>1422</ele>
        <time>2017-03-26T20:14:32Z</time>
      </trkpt>
      <trkpt lat="44.31903" lon="6.62849">
        <ele>1413</ele>
        <time>2017-03-26T20:14:37Z</time>
      </trkpt>
      <trkpt lat="44.32008" lon="6.62618">
        <ele>1391</ele>
        <time>2017-03-26T20:14:47Z</time>
      </trkpt>
      <trkpt lat="44.32018" lon="6.62397">
        <ele>1375</ele>
        <time>2017-03-26T20:14:53Z</time>
      </trkpt>
      <trkpt lat="44.32008" lon="6.6231">
        <ele>1367</ele>
        <time>2017-03-26T20:14:56Z</time>
      </trkpt>
      <trkpt lat="44.32034" lon="6.62151">
        <ele>1366</ele>
        <time>2017-03-26T20:15:10Z</time>
      </trkpt>
      <trkpt lat="44.32054" lon="6.6192">
        <ele>1385</ele>
        <time>2017-03-26T20:15:23Z</time>
      </trkpt>
      <trkpt lat="44.32096" lon="6.61826">
        <ele>1356</ele>
        <time>2017-03-26T20:15:38Z</time>
      </trkpt>
      <trkpt lat="44.3224" lon="6.6163">
        <ele>1346</ele>
        <time>2017-03-26T20:15:45Z</time>
      </trkpt>
      <trkpt lat="44.32259" lon="6.61512">
        <ele>1345</ele>
        <time>2017-03-26T20:16:02Z</time>
      </trkpt>
      <trkpt lat="44.32432" lon="6.61392">
        <ele>1361</ele>
        <time>2017-03-26T20:16:20Z</time>
      </trkpt>
      <trkpt lat="44.32541" lon="6.61381">
        <ele>1343</ele>
        <time>2017-03-26T20:16:28Z</time>
      </trkpt>
      <trkpt lat="44.3263" lon="6.61348">
        <ele>1339</ele>
        <time>2017-03-26T20:16:37Z</time>
      </trkpt>
      <trkpt lat="44.32697" lon="6.61377">
        <ele>1333</ele>
        <time>2017-03-26T20:16:45Z</time>
      </trkpt>
      <trkpt lat="44.32762" lon="6.61348">
        <ele>1328</ele>
        <time>2017-03-26T20:16:58Z</time>
      </trkpt>
      <trkpt lat="44.32805" lon="6.61329">
        <ele>1328</ele>
        <time>2017-03-26T20:17:12Z</time>
      </trkpt>
      <trkpt lat="44.32884" lon="6.6134">
        <ele>1340</ele>
        <time>2017-03-26T20:17:24Z</time>
      </trkpt>
      <trkpt lat="44.33016" lon="6.61396">
        <ele>1377</ele>
        <time>2017-03-26T20:17:36Z</time>
      </trkpt>
      <trkpt lat="44.33131" lon="6.61433">
        <ele>1431</ele>
        <time>2017-03-26T20:17:43Z</time>
      </trkpt>
      <trkpt lat="44.33197" lon="6.61377">
        <ele>1377</ele>
        <time>2017-03-26T20:18:01Z</time>
      </trkpt>
      <trkpt lat="44.33313" lon="6.61414">
        <ele>1314</ele>
        <time>2017-03-26T20:18:21Z</time>
      </trkpt>
      <trkpt lat="44.33383" lon="6.6147">
        <ele>1280</ele>
        <time>2017-03-26T20:18:29Z</time>
      </trkpt>
      <trkpt lat="44.33484" lon="6.61509">
        <ele>1293</ele>
        <time>2017-03-26T20:18:42Z</time>
      </trkpt>
      <trkpt lat="44.33613" lon="6.61625">
        <ele>1285</ele>
        <time>2017-03-26T20:18:49Z</time>
      </trkpt>
      <trkpt lat="44.33791" lon="6.61644">
        <ele>1283</ele>
        <time>2017-03-26T20:18:53Z</time>
      </trkpt>
      <trkpt lat="44.33881" lon="6.61677">
        <ele>1267</ele>
        <time>2017-03-26T20:18:57Z</time>
      </trkpt>
      <trkpt lat="44.33897" lon="6.61731">
        <ele>1260</ele>
        <time>2017-03-26T20:19:06Z</time>
      </trkpt>
      <trkpt lat="44.33987" lon="6.61775">
        <ele>1264</ele>
        <time>2017-03-26T20:19:21Z</time>
      </trkpt>
      <trkpt lat="44.34082" lon="6.61908">
        <ele>1249</ele>
        <time>2017-03-26T20:19:38Z</time>
      </trkpt>
      <trkpt lat="44.34131" lon="6.61931">
        <ele>1249</ele>
        <time>2017-03-26T20:19:45Z</time>
      </trkpt>
      <trkpt lat="44.34208" lon="6.61913">
        <ele>1262</ele>
        <time>2017-03-26T20:19:56Z</time>
      </trkpt>
      <trkpt lat="44.34308" lon="6.61921">
        <ele>1250</ele>
        <time>2017-03-26T20:20:13Z</time>
      </trkpt>
      <trkpt lat="44.34386" lon="6.61963">
        <ele>1250</ele>
        <time>2017-03-26T20:20:27Z</time>
      </trkpt>
      <trkpt lat="44.34489" lon="6.61966">
        <ele>1255</ele>
        <time>2017-03-26T20:20:39Z</time>
      </trkpt>
      <trkpt lat="44.34614" lon="6.62005">
        <ele>1236</ele>
        <time>2017-03-26T20:20:53Z</time>
      </trkpt>
      <trkpt lat="44.34874" lon="6.61948">
        <ele>1239</ele>
        <time>2017-03-26T20:21:03Z</time>
      </trkpt>
      <trkpt lat="44.34995" lon="6.61919">
        <ele>1237</ele>
        <time>2017-03-26T20:21:08Z</time>
      </trkpt>
      <trkpt lat="44.35112" lon="6.62001">
        <ele>1222</ele>
        <time>2017-03-26T20:21:10Z</time>
      </trkpt>
      <trkpt lat="44.35222" lon="6.62031">
        <ele>1232</ele>
        <time>2017-03-26T20:21:14Z</time>
      </trkpt>
      <trkpt lat="44.35301" lon="6.62117">
        <ele>1222</ele>
        <time>2017-03-26T20:21:24Z</time>
      </trkpt>
      <trkpt lat="44.35443" lon="6.62168">
        <ele>1221</ele>
        <time>2017-03-26T20:21:29Z</time>
      </trkpt>
      <trkpt lat="44.35523" lon="6.62235">
        <ele>1222</ele>
        <time>2017-03-26T20:21:42Z</time>
      </trkpt>
      <trkpt lat="44.35661" lon="6.62292">
        <ele>1209</ele>
        <time>2017-03-26T20:21:46Z</time>
      </trkpt>
      <trkpt lat="44.35867" lon="6.6241">
        <ele>1206</ele>
        <time>2017-03-26T20:21:52Z</time>
      </trkpt>
      <trkpt lat="44.36013" lon="6.62477">
        <ele>1199</ele>
        <time>2017-03-26T20:21:58Z</time>
      </trkpt>
      <trkpt lat="44.36127" lon="6.62645">
        <ele>1185</ele>
        <time>2017-03-26T20:22:01Z</time>
      </trkpt>
      <trkpt lat="44.36352" lon="6.62766">
        <ele>1177</ele>
        <time>2017-03-26T20:22:10Z</time>
      </trkpt>
      <trkpt lat="44.37133" lon="6.62782">
        <ele>1151</ele>
        <time>2017-03-26T20:22:13Z</time>
      </trkpt>
      <trkpt lat="44.37549" lon="6.62767">
        <ele>1145</ele>
        <time>2017-03-26T20:22:28Z</time>
      </trkpt>
      <trkpt lat="44.37717" lon="6.62808">
        <ele>1138</ele>
        <time>2017-03-26T20:22:31Z</time>
      </trkpt>
      <trkpt lat="44.38022" lon="6.62923">
        <ele>1132</ele>
        <time>2017-03-26T20:22:46Z</time>
      </trkpt>
      <trkpt lat="44.38104" lon="6.62986">
        <ele>1127</ele>
        <time>2017-03-26T20:22:53Z</time>
      </trkpt>
      <trkpt lat="44.38223" lon="6.63158">
        <ele>1129</ele>
        <time>2017-03-26T20:23:01Z</time>
      </trkpt>
      <trkpt lat="44.38289" lon="6.63407">
        <ele>1125</ele>
        <time>2017-03-26T20:23:09Z</time>
      </trkpt>
      <trkpt lat="44.38307" lon="6.63708">
        <ele>1128</ele>
        <time>2017-03-26T20:23:20Z</time>
      </trkpt>
      <trkpt lat="44.38388" lon="6.64269">
        <ele>1130</ele>
        <time>2017-03-26T20:23:38Z</time>
      </trkpt>
      <trkpt lat="44.38455" lon="6.64751">
        <ele>1134</ele>
        <time>2017-03-26T20:23:58Z</time>
      </trkpt>
      <trkpt lat="44.3845" lon="6.64789">
        <ele>1135</ele>
        <time>2017-03-26T20:24:10Z</time>
      </trkpt>
      <trkpt lat="44.38447" lon="6.64808">
        <ele>1135</ele>
        <time>2017-03-26T20:24:19Z</time>
      </trkpt>
      <trkpt lat="44.38448" lon="6.64824">
        <ele>1135</ele>
        <time>2017-03-26T20:24:37Z</time>
      </trkpt>
      <trkpt lat="44.3845" lon="6.64838">
        <ele>1136</ele>
        <time>2017-03-26T20:24:57Z</time>
      </trkpt>
      <trkpt lat="44.38456" lon="6.64846">
        <ele>1136</ele>
        <time>2017-03-26T20:25:08Z</time>
      </trkpt>
      <trkpt lat="44.38472" lon="6.64857">
        <ele>1136</ele>
        <time>2017-03-26T20:25:19Z</time>
      </trkpt>
      <trkpt lat="44.38492" lon="6.64871">
        <ele>1136</ele>
        <time>2017-03-26T20:25:22Z</time>
      </trkpt>
      <trkpt lat="44.38458" lon="6.65027">
        <ele>1137</ele>
        <time>2017-03-26T20:25:35Z</time>
      </trkpt>
      <trkpt lat="44.3845" lon="6.65078">
        <ele>1137</ele>
        <time>2017-03-26T20:25:54Z</time>
      </trkpt>
      <trkpt lat="44.38447" lon="6.65106">
        <ele>1137</ele>
        <time>2017-03-26T20:26:11Z</time>
      </trkpt>
      <trkpt lat="44.38447" lon="6.65148">
        <ele>1137</ele>
        <time>2017-03-26T20:26:24Z</time>
      </trkpt>
      <trkpt lat="44.38436" lon="6.65203">
        <ele>1137</ele>
        <time>2017-03-26T20:26:31Z</time>
      </trkpt>
      <trkpt lat="44.38426" lon="6.6532">
        <ele>1139</ele>
        <time>2017-03-26T20:26:33Z</time>
      </trkpt>
      <trkpt lat="44.38415" lon="6.65435">
        <ele>1141</ele>
        <time>2017-03-26T20:26:38Z</time>
      </trkpt>
      <trkpt lat="44.38406" lon="6.6555">
        <ele>1140</ele>
        <time>2017-03-26T20:26:45Z</time>
      </trkpt>
      <trkpt lat="44.38401" lon="6.65706">
        <ele>1138</ele>
        <time>2017-03-26T20:27:04Z</time>
      </trkpt>
      <trkpt lat="44.38401" lon="6.6577">
        <ele>1140</ele>
        <time>2017-03-26T20:27:17Z</time>
      </trkpt>
      <trkpt lat="44.38406" lon="6.65835">
        <ele>1140</ele>
        <time>2017-03-26T20:27:35Z</time>
      </trkpt>
      <trkpt lat="44.38415" lon="6.65892">
        <ele>1140</ele>
        <time>2017-03-26T20:27:42Z</time>
      </trkpt>
      <trkpt lat="44.3843" lon="6.65945">
        <ele>1140</ele>
        <time>2017-03-26T20:27:50Z</time>
      </trkpt>
      <trkpt lat="44.38455" lon="6.66008">
        <ele>1141</ele>
        <time>2017-03-26T20:28:01Z</time>
      </trkpt>
      <trkpt lat="44.38501" lon="6.661">
        <ele>1141</ele>
        <time>2017-03-26T20:28:10Z</time>
      </trkpt>
      <trkpt lat="44.38564" lon="6.66211">
        <ele>1140</ele>
        <time>2017-03-26T20:28:25Z</time>
      </trkpt>
      <trkpt lat="44.3863" lon="6.66312">
        <ele>1143</ele>
        <time>2017-03-26T20:28:41Z</time>
      </trkpt>
      <trkpt lat="44.38765" lon="6.66519">
        <ele>1146</ele>
        <time>2017-03-26T20:28:46Z</time>
      </trkpt>
      <trkpt lat="44.38824" lon="6.66606">
        <ele>1146</ele>
        <time>2017-03-26T20:29:00Z</time>
      </trkpt>
      <trkpt lat="44.3891" lon="6.66734">
        <ele>1144</ele>
        <time>2017-03-26T20:29:18Z</time>
      </trkpt>
      <trkpt lat="44.38921" lon="6.66749">
        <ele>1145</ele>
        <time>2017-03-26T20:29:35Z</time>
      </trkpt>
      <trkpt lat="44.3897" lon="6.66789">
        <ele>1147</ele>
        <time>2017-03-26T20:29:49Z</time>
      </trkpt>
      <trkpt lat="44.38999" lon="6.66787">
        <ele>1148</ele>
        <time>2017-03-26T20:30:05Z</time>
      </trkpt>
      <trkpt lat="44.39004" lon="6.66822">
        <ele>1150</ele>
        <time>2017-03-26T20:30:09Z</time>
      </trkpt>
      <trkpt lat="44.39035" lon="6.66948">
        <ele>1151</ele>
        <time>2017-03-26T20:30:28Z</time>
      </trkpt>
      <trkpt lat="44.39044" lon="6.66971">
        <ele>1151</ele>
        <time>2017-03-26T20:30:45Z</time>
      </trkpt>
      <trkpt lat="44.39055" lon="6.66987">
        <ele>1151</ele>
        <time>2017-03-26T20:30:55Z</time>
      </trkpt>
      <trkpt lat="44.39083" lon="6.67011">
        <ele>1151</ele>
        <time>2017-03-26T20:31:01Z</time>
      </trkpt>
      <trkpt lat="44.391" lon="6.67028">
        <ele>1154</ele>
        <time>2017-03-26T20:31:13Z</time>
      </trkpt>
      <trkpt lat="44.39114" lon="6.6705">
        <ele>1154</ele>
        <time>2017-03-26T20:31:25Z</time>
      </trkpt>
      <trkpt lat="44.39125" lon="6.67071">
        <ele>1155</ele>
        <time>2017-03-26T20:31:40Z</time>
      </trkpt>
      <trkpt lat="44.39131" lon="6.6709">
        <ele>1155</ele>
        <time>2017-03-26T20:31:52Z</time>
      </trkpt>
      <trkpt lat="44.39136" lon="6.67123">
        <ele>1155</ele>
        <time>2017-03-26T20:31:55Z</time>
      </trkpt>
      <trkpt lat="44.3914" lon="6.67313">
        <ele>1158</ele>
        <time>2017-03-26T20:32:09Z</time>
      </trkpt>
      <trkpt lat="44.39145" lon="6.67515">
        <ele>1160</ele>
        <time>2017-03-26T20:32:20Z</time>
      </trkpt>
      <trkpt lat="44.3915" lon="6.67808">
        <ele>1161</ele>
        <time>2017-03-26T20:32:40Z</time>
      </trkpt>
      <trkpt lat="44.39161" lon="6.6827">
        <ele>1165</ele>
        <time>2017-03-26T20:32:45Z</time>
      </trkpt>
      <trkpt lat="44.39164" lon="6.68307">
        <ele>1164</ele>
        <time>2017-03-26T20:33:00Z</time>
      </trkpt>
      <trkpt lat="44.39169" lon="6.68334">
        <ele>1166</ele>
        <time>2017-03-26T20:33:15Z</time>
      </trkpt>
      <trkpt lat="44.39194" lon="6.68428">
        <ele>1168</ele>
        <time>2017-03-26T20:33:20Z</time>
      </trkpt>
      <trkpt lat="44.39241" lon="6.68599">
        <ele>1167</ele>
        <time>2017-03-26T20:33:39Z</time>
      </trkpt>
      <trkpt lat="44.39255" lon="6.68638">
        <ele>1170</ele>
        <time>2017-03-26T20:33:55Z</time>
      </trkpt>
      <trkpt lat="44.39266" lon="6.68659">
        <ele>1169</ele>
        <time>2017-03-26T20:34:03Z</time>
      </trkpt>
      <trkpt lat="44.39325" lon="6.68757">
        <ele>1168</ele>
        <time>2017-03-26T20:34:15Z</time>
      </trkpt>
      <trkpt lat="44.39418" lon="6.68911">
        <ele>1170</ele>
        <time>2017-03-26T20:34:24Z</time>
      </trkpt>
      <trkpt lat="44.39461" lon="6.68973">
        <ele>1171</ele>
        <time>2017-03-26T20:34:32Z</time>
      </trkpt>
      <trkpt lat="44.3956" lon="6.69085">
        <ele>1178</ele>
        <time>2017-03-26T20:34:47Z</time>
      </trkpt>
      <trkpt lat="44.39617" lon="6.6914">
        <ele>1179</ele>
        <time>2017-03-26T20:34:58Z</time>
      </trkpt>
      <trkpt lat="44.39649" lon="6.69167">
        <ele>1177</ele>
        <time>2017-03-26T20:35:02Z</time>
      </trkpt>
      <trkpt lat="44.39788" lon="6.69286">
        <ele>1180</ele>
        <time>2017-03-26T20:35:13Z</time>
      </trkpt>
      <trkpt lat="44.39922" lon="6.69397">
        <ele>1178</ele>
        <time>2017-03-26T20:35:17Z</time>
      </trkpt>
      <trkpt lat="44.39938" lon="6.69416">
        <ele>1178</ele>
        <time>2017-03-26T20:35:33Z</time>
      </trkpt>
      <trkpt lat="44.39954" lon="6.69441">
        <ele>1177</ele>
        <time>2017-03-26T20:35:48Z</time>
      </trkpt>
      <trkpt lat="44.39966" lon="6.69469">
        <ele>1177</ele>
        <time>2017-03-26T20:35:54Z</time>
      </trkpt>
      <trkpt lat="44.4001" lon="6.69594">
        <ele>1179</ele>
        <time>2017-03-26T20:36:07Z</time>
      </trkpt>
      <trkpt lat="44.4008" lon="6.69794">
        <ele>1181</ele>
        <time>2017-03-26T20:36:23Z</time>
      </trkpt>
      <trkpt lat="44.4012" lon="6.69905">
        <ele>1188</ele>
        <time>2017-03-26T20:36:29Z</time>
      </trkpt>
      <trkpt lat="44.40169" lon="6.70047">
        <ele>1190</ele>
        <time>2017-03-26T20:36:42Z</time>
      </trkpt>
      <trkpt lat="44.40191" lon="6.70102">
        <ele>1187</ele>
        <time>2017-03-26T20:36:58Z</time>
      </trkpt>
      <trkpt lat="44.40205" lon="6.70122">
        <ele>1187</ele>
        <time>2017-03-26T20:37:10Z</time>
      </trkpt>
      <trkpt lat="44.40221" lon="6.70137">
        <ele>1188</ele>
        <time>2017-03-26T20:37:15Z</time>
      </trkpt>
      <trkpt lat="44.40239" lon="6.70147">
        <ele>1188</ele>
        <time>2017-03-26T20:37:17Z</time>
      </trkpt>
      <trkpt lat="44.4035" lon="6.70192">
        <ele>1186</ele>
        <time>2017-03-26T20:37:28Z</time>
      </trkpt>
      <trkpt lat="44.40365" lon="6.70202">
        <ele>1185</ele>
        <time>2017-03-26T20:37:30Z</time>
      </trkpt>
      <trkpt lat="44.40378" lon="6.70215">
        <ele>1185</ele>
        <time>2017-03-26T20:37:38Z</time>
      </trkpt>
      <trkpt lat="44.40389" lon="6.70231">
        <ele>1185</ele>
        <time>2017-03-26T20:37:56Z</time>
      </trkpt>
      <trkpt lat="44.40398" lon="6.70251">
        <ele>1182</ele>
        <time>2017-03-26T20:38:12Z</time>
      </trkpt>
      <trkpt lat="44.40405" lon="6.70271">
        <ele>1182</ele>
        <time>2017-03-26T20:38:18Z</time>
      </trkpt>
      <trkpt lat="44.40439" lon="6.704">
        <ele>1182</ele>
        <time>2017-03-26T20:38:31Z</time>
      </trkpt>
      <trkpt lat="44.40469" lon="6.70522">
        <ele>1180</ele>
        <time>2017-03-26T20:38:51Z</time>
      </trkpt>
      <trkpt lat="44.40481" lon="6.70577">
        <ele>1178</ele>
        <time>2017-03-26T20:39:03Z</time>
      </trkpt>
      <trkpt lat="44.40483" lon="6.70629">
        <ele>1179</ele>
        <time>2017-03-26T20:39:05Z</time>
      </trkpt>
      <trkpt lat="44.40484" lon="6.70769">
        <ele>1183</ele>
        <time>2017-03-26T20:39:14Z</time>
      </trkpt>
      <trkpt lat="44.40486" lon="6.70981">
        <ele>1189</ele>
        <time>2017-03-26T20:39:28Z</time>
      </trkpt>
      <trkpt lat="44.40487" lon="6.71142">
        <ele>1190</ele>
        <time>2017-03-26T20:39:46Z</time>
      </trkpt>
      <trkpt lat="44.40489" lon="6.71165">
        <ele>1191</ele>
        <time>2017-03-26T20:39:59Z</time>
      </trkpt>
      <trkpt lat="44.40506" lon="6.71273">
        <ele>1196</ele>
        <time>2017-03-26T20:40:10Z</time>
      </trkpt>
      <trkpt lat="44.40526" lon="6.71404">
        <ele>1196</ele>
        <time>2017-03-26T20:40:29Z</time>
      </trkpt>
      <trkpt lat="44.40548" lon="6.71548">
        <ele>1198</ele>
        <time>2017-03-26T20:40:45Z</time>
      </trkpt>
      <trkpt lat="44.4058" lon="6.71761">
        <ele>1203</ele>
        <time>2017-03-26T20:40:49Z</time>
      </trkpt>
      <trkpt lat="44.40597" lon="6.71832">
        <ele>1206</ele>
        <time>2017-03-26T20:41:01Z</time>
      </trkpt>
      <trkpt lat="44.40615" lon="6.71891">
        <ele>1208</ele>
        <time>2017-03-26T20:41:17Z</time>
      </trkpt>
      <trkpt lat="44.40648" lon="6.72003">
        <ele>1210</ele>
        <time>2017-03-26T20:41:22Z</time>
      </trkpt>
      <trkpt lat="44.40702" lon="6.72182">
        <ele>1211</ele>
        <time>2017-03-26T20:41:41Z</time>
      </trkpt>
      <trkpt lat="44.40723" lon="6.72237">
        <ele>1211</ele>
        <time>2017-03-26T20:41:51Z</time>
      </trkpt>
      <trkpt lat="44.40762" lon="6.7232">
        <ele>1212</ele>
        <time>2017-03-26T20:41:59Z</time>
      </trkpt>
      <trkpt lat="44.40895" lon="6.72603">
        <ele>1211</ele>
        <time>2017-03-26T20:42:17Z</time>
      </trkpt>
      <trkpt lat="44.40921" lon="6.72652">
        <ele>1214</ele>
        <time>2017-03-26T20:42:23Z</time>
      </trkpt>
      <trkpt lat="44.40943" lon="6.72687">
        <ele>1214</ele>
        <time>2017-03-26T20:42:35Z</time>
      </trkpt>
      <trkpt lat="44.40977" lon="6.72736">
        <ele>1215</ele>
        <time>2017-03-26T20:42:43Z</time>
      </trkpt>
      <trkpt lat="44.41007" lon="6.72774">
        <ele>1216</ele>
        <time>2017-03-26T20:42:48Z</time>
      </trkpt>
      <trkpt lat="44.41038" lon="6.72805">
        <ele>1216</ele>
        <time>2017-03-26T20:42:51Z</time>
      </trkpt>
      <trkpt lat="44.41092" lon="6.72845">
        <ele>1215</ele>
        <time>2017-03-26T20:43:05Z</time>
      </trkpt>
      <trkpt lat="44.41125" lon="6.72861">
        <ele>1215</ele>
        <time>2017-03-26T20:43:13Z</time>
      </trkpt>
      <trkpt lat="44.41153" lon="6.72871">
        <ele>1215</ele>
        <time>2017-03-26T20:43:18Z</time>
      </trkpt>
      <trkpt lat="44.41201" lon="6.72886">
        <ele>1216</ele>
        <time>2017-03-26T20:43:38Z</time>
      </trkpt>
      <trkpt lat="44.41249" lon="6.72898">
        <ele>1215</ele>
        <time>2017-03-26T20:43:58Z</time>
      </trkpt>
      <trkpt lat="44.41269" lon="6.72902">
        <ele>1216</ele>
        <time>2017-03-26T20:44:01Z</time>
      </trkpt>
      <trkpt lat="44.41293" lon="6.72903">
        <ele>1216</ele>
        <time>2017-03-26T20:44:21Z</time>
      </trkpt>
      <trkpt lat="44.41311" lon="6.72901">
        <ele>1216</ele>
        <time>2017-03-26T20:44:29Z</time>
      </trkpt>
      <trkpt lat="44.41333" lon="6.72894">
        <ele>1216</ele>
        <time>2017-03-26T20:44:41Z</time>
      </trkpt>
      <trkpt lat="44.41427" lon="6.72855">
        <ele>1216</ele>
        <time>2017-03-26T20:44:45Z</time>
      </trkpt>
      <trkpt lat="44.41499" lon="6.72826">
        <ele>1217</ele>
        <time>2017-03-26T20:44:56Z</time>
      </trkpt>
      <trkpt lat="44.41524" lon="6.72823">
        <ele>1217</ele>
        <time>2017-03-26T20:45:16Z</time>
      </trkpt>
      <trkpt lat="44.41547" lon="6.72826">
        <ele>1217</ele>
        <time>2017-03-26T20:45:32Z</time>
      </trkpt>
      <trkpt lat="44.41604" lon="6.72838">
        <ele>1216</ele>
        <time>2017-03-26T20:45:49Z</time>
      </trkpt>
      <trkpt lat="44.4163" lon="6.72849">
        <ele>1216</ele>
        <time>2017-03-26T20:46:01Z</time>
      </trkpt>
      <trkpt lat="44.41659" lon="6.72869">
        <ele>1215</ele>
        <time>2017-03-26T20:46:12Z</time>
      </trkpt>
      <trkpt lat="44.41679" lon="6.72888">
        <ele>1216</ele>
        <time>2017-03-26T20:46:21Z</time>
      </trkpt>
      <trkpt lat="44.41697" lon="6.72911">
        <ele>1216</ele>
        <time>2017-03-26T20:46:23Z</time>
      </trkpt>
      <trkpt lat="44.41764" lon="6.73012">
        <ele>1214</ele>
        <time>2017-03-26T20:46:31Z</time>
      </trkpt>
      <trkpt lat="44.41818" lon="6.73092">
        <ele>1215</ele>
        <time>2017-03-26T20:46:45Z</time>
      </trkpt>
      <trkpt lat="44.41837" lon="6.73139">
        <ele>1215</ele>
        <time>2017-03-26T20:47:05Z</time>
      </trkpt>
      <trkpt lat="44.4186" lon="6.73241">
        <ele>1215</ele>
        <time>2017-03-26T20:47:17Z</time>
      </trkpt>
      <trkpt lat="44.41875" lon="6.73306">
        <ele>1218</ele>
        <time>2017-03-26T20:47:21Z</time>
      </trkpt>
      <trkpt lat="44.41885" lon="6.73323">
        <ele>1218</ele>
        <time>2017-03-26T20:47:36Z</time>
      </trkpt>
      <trkpt lat="44.41925" lon="6.73354">
        <ele>1223</ele>
        <time>2017-03-26T20:47:38Z</time>
      </trkpt>
      <trkpt lat="44.41942" lon="6.73375">
        <ele>1225</ele>
        <time>2017-03-26T20:47:51Z</time>
      </trkpt>
      <trkpt lat="44.41983" lon="6.73465">
        <ele>1223</ele>
        <time>2017-03-26T20:48:10Z</time>
      </trkpt>
      <trkpt lat="44.41998" lon="6.7351">
        <ele>1220</ele>
        <time>2017-03-26T20:48:30Z</time>
      </trkpt>
      <trkpt lat="44.4201" lon="6.73553">
        <ele>1222</ele>
        <time>2017-03-26T20:48:45Z</time>
      </trkpt>
      <trkpt lat="44.42011" lon="6.73585">
        <ele>1220</ele>
        <time>2017-03-26T20:48:55Z</time>
      </trkpt>
      <trkpt lat="44.42012" lon="6.73605">
        <ele>1220</ele>
        <time>2017-03-26T20:49:01Z</time>
      </trkpt>
      <trkpt lat="44.42016" lon="6.73619">
        <ele>1219</ele>
        <time>2017-03-26T20:49:13Z</time>
      </trkpt>
      <trkpt lat="44.42021" lon="6.7363">
        <ele>1219</ele>
        <time>2017-03-26T20:49:23Z</time>
      </trkpt>
      <trkpt lat="44.42043" lon="6.73652">
        <ele>1219</ele>
        <time>2017-03-26T20:49:42Z</time>
      </trkpt>
      <trkpt lat="44.42056" lon="6.73663">
        <ele>1219</ele>
        <time>2017-03-26T20:49:46Z</time>
      </trkpt>
      <trkpt lat="44.42121" lon="6.73693">
        <ele>1220</ele>
        <time>2017-03-26T20:49:50Z</time>
      </trkpt>
      <trkpt lat="44.42172" lon="6.7371">
        <ele>1223</ele>
        <time>2017-03-26T20:50:07Z</time>
      </trkpt>
      <trkpt lat="44.42202" lon="6.73717">
        <ele>1223</ele>
        <time>2017-03-26T20:50:19Z</time>
      </trkpt>
      <trkpt lat="44.42231" lon="6.7372">
        <ele>1224</ele>
        <time>2017-03-26T20:50:30Z</time>
      </trkpt>
      <trkpt lat="44.42294" lon="6.73719">
        <ele>1226</ele>
        <time>2017-03-26T20:50:48Z</time>
      </trkpt>
      <trkpt lat="44.42382" lon="6.73714">
        <ele>1228</ele>
        <time>2017-03-26T20:51:01Z</time>
      </trkpt>
      <trkpt lat="44.42496" lon="6.73706">
        <ele>1231</ele>
        <time>2017-03-26T20:51:05Z</time>
      </trkpt>
      <trkpt lat="44.42668" lon="6.73697">
        <ele>1233</ele>
        <time>2017-03-26T20:51:16Z</time>
      </trkpt>
      <trkpt lat="44.42703" lon="6.73696">
        <ele>1233</ele>
        <time>2017-03-26T20:51:29Z</time>
      </trkpt>
      <trkpt lat="44.42742" lon="6.73688">
        <ele>1233</ele>
        <time>2017-03-26T20:51:32Z</time>
      </trkpt>
      <trkpt lat="44.42771" lon="6.73676">
        <ele>1233</ele>
        <time>2017-03-26T20:51:46Z</time>
      </trkpt>
      <trkpt lat="44.42845" lon="6.73641">
        <ele>1237</ele>
        <time>2017-03-26T20:51:50Z</time>
      </trkpt>
      <trkpt lat="44.42875" lon="6.73632">
        <ele>1238</ele>
        <time>2017-03-26T20:52:03Z</time>
      </trkpt>
      <trkpt lat="44.42903" lon="6.7363">
        <ele>1237</ele>
        <time>2017-03-26T20:52:08Z</time>
      </trkpt>
      <trkpt lat="44.42917" lon="6.73633">
        <ele>1243</ele>
        <time>2017-03-26T20:52:28Z</time>
      </trkpt>
      <trkpt lat="44.42945" lon="6.73642">
        <ele>1245</ele>
        <time>2017-03-26T20:52:32Z</time>
      </trkpt>
      <trkpt lat="44.42972" lon="6.73656">
        <ele>1248</ele>
        <time>2017-03-26T20:52:37Z</time>
      </trkpt>
      <trkpt lat="44.4299" lon="6.73673">
        <ele>1245</ele>
        <time>2017-03-26T20:52:48Z</time>
      </trkpt>
      <trkpt lat="44.43006" lon="6.73691">
        <ele>1253</ele>
        <time>2017-03-26T20:53:07Z</time>
      </trkpt>
      <trkpt lat="44.43027" lon="6.73722">
        <ele>1252</ele>
        <time>2017-03-26T20:53:18Z</time>
      </trkpt>
      <trkpt lat="44.4307" lon="6.73805">
        <ele>1246</ele>
        <time>2017-03-26T20:53:28Z</time>
      </trkpt>
      <trkpt lat="44.43084" lon="6.73826">
        <ele>1248</ele>
        <time>2017-03-26T20:53:43Z</time>
      </trkpt>
      <trkpt lat="44.43106" lon="6.73846">
        <ele>1247</ele>
        <time>2017-03-26T20:53:53Z</time>
      </trkpt>
      <trkpt lat="44.4313" lon="6.73857">
        <ele>1250</ele>
        <time>2017-03-26T20:54:00Z</time>
      </trkpt>
      <trkpt lat="44.43158" lon="6.73865">
        <ele>1252</ele>
        <time>2017-03-26T20:54:19Z</time>
      </trkpt>
      <trkpt lat="44.43167" lon="6.73871">
        <ele>1267</ele>
        <time>2017-03-26T20:54:31Z</time>
      </trkpt>
      <trkpt lat="44.43185" lon="6.73886">
        <ele>1267</ele>
        <time>2017-03-26T20:54:44Z</time>
      </trkpt>
      <trkpt lat="44.43194" lon="6.73901">
        <ele>1266</ele>
        <time>2017-03-26T20:54:52Z</time>
      </trkpt>
      <trkpt lat="44.43249" lon="6.7401">
        <ele>1248</ele>
        <time>2017-03-26T20:55:10Z</time>
      </trkpt>
      <trkpt lat="44.43261" lon="6.7403">
        <ele>1252</ele>
        <time>2017-03-26T20:55:25Z</time>
      </trkpt>
      <trkpt lat="44.4328" lon="6.74052">
        <ele>1251</ele>
        <time>2017-03-26T20:55:34Z</time>
      </trkpt>
      <trkpt lat="44.43337" lon="6.74098">
        <ele>1244</ele>
        <time>2017-03-26T20:55:53Z</time>
      </trkpt>
      <trkpt lat="44.43354" lon="6.74119">
        <ele>1244</ele>
        <time>2017-03-26T20:55:56Z</time>
      </trkpt>
      <trkpt lat="44.43364" lon="6.74137">
        <ele>1243</ele>
        <time>2017-03-26T20:56:15Z</time>
      </trkpt>
      <trkpt lat="44.43376" lon="6.74169">
        <ele>1241</ele>
        <time>2017-03-26T20:56:24Z</time>
      </trkpt>
      <trkpt lat="44.43421" lon="6.74339">
        <ele>1252</ele>
        <time>2017-03-26T20:56:37Z</time>
      </trkpt>
      <trkpt lat="44.43432" lon="6.74371">
        <ele>1254</ele>
        <time>2017-03-26T20:56:53Z</time>
      </trkpt>
      <trkpt lat="44.43441" lon="6.74384">
        <ele>1254</ele>
        <time>2017-03-26T20:56:58Z</time>
      </trkpt>
      <trkpt lat="44.43449" lon="6.74392">
        <ele>1254</ele>
        <time>2017-03-26T20:57:10Z</time>
      </trkpt>
      <trkpt lat="44.43461" lon="6.74397">
        <ele>1255</ele>
        <time>2017-03-26T20:57:30Z</time>
      </trkpt>
      <trkpt lat="44.43493" lon="6.74404">
        <ele>1256</ele>
        <time>2017-03-26T20:57:48Z</time>
      </trkpt>
      <trkpt lat="44.43518" lon="6.74407">
        <ele>1258</ele>
        <time>2017-03-26T20:57:51Z</time>
      </trkpt>
      <trkpt lat="44.43547" lon="6.74409">
        <ele>1258</ele>
        <time>2017-03-26T20:58:11Z</time>
      </trkpt>
      <trkpt lat="44.4356" lon="6.74406">
        <ele>1257</ele>
        <time>2017-03-26T20:58:22Z</time>
      </trkpt>
      <trkpt lat="44.43571" lon="6.74399">
        <ele>1256</ele>
        <time>2017-03-26T20:58:38Z</time>
      </trkpt>
      <trkpt lat="44.43595" lon="6.74377">
        <ele>1260</ele>
        <time>2017-03-26T20:58:43Z</time>
      </trkpt>
      <trkpt lat="44.43615" lon="6.74367">
        <ele>1262</ele>
        <time>2017-03-26T20:59:00Z</time>
      </trkpt>
      <trkpt lat="44.43632" lon="6.74368">
        <ele>1262</ele>
        <time>2017-03-26T20:59:19Z</time>
      </trkpt>
      <trkpt lat="44.43655" lon="6.74379">
        <ele>1262</ele>
        <time>2017-03-26T20:59:24Z</time>
      </trkpt>
      <trkpt lat="44.43673" lon="6.74387">
        <ele>1262</ele>
        <time>2017-03-26T20:59:28Z</time>
      </trkpt>
      <trkpt lat="44.43699" lon="6.74395">
        <ele>1262</ele>
        <time>2017-03-26T20:59:42Z</time>
      </trkpt>
      <trkpt lat="44.43735" lon="6.74407">
        <ele>1259</ele>
        <time>2017-03-26T21:00:01Z</time>
      </trkpt>
      <trkpt lat="44.4375" lon="6.7441">
        <ele>1256</ele>
        <time>2017-03-26T21:00:05Z</time>
      </trkpt>
      <trkpt lat="44.4377" lon="6.74405">
        <ele>1260</ele>
        <time>2017-03-26T21:00:09Z</time>
      </trkpt>
      <trkpt lat="44.43809" lon="6.74385">
        <ele>1263</ele>
        <time>2017-03-26T21:00:25Z</time>
      </trkpt>
      <trkpt lat="44.43824" lon="6.74385">
        <ele>1263</ele>
        <time>2017-03-26T21:00:28Z</time>
      </trkpt>
      <trkpt lat="44.43868" lon="6.74396">
        <ele>1262</ele>
        <time>2017-03-26T21:00:40Z</time>
      </trkpt>
      <trkpt lat="44.43881" lon="6.74394">
        <ele>1262</ele>
        <time>2017-03-26T21:01:00Z</time>
      </trkpt>
      <trkpt lat="44.43909" lon="6.74378">
        <ele>1264</ele>
        <time>2017-03-26T21:01:05Z</time>
      </trkpt>
      <trkpt lat="44.43926" lon="6.74362">
        <ele>1263</ele>
        <time>2017-03-26T21:01:21Z</time>
      </trkpt>
      <trkpt lat="44.43939" lon="6.74342">
        <ele>1264</ele>
        <time>2017-03-26T21:01:40Z</time>
      </trkpt>
      <trkpt lat="44.43966" lon="6.74295">
        <ele>1272</ele>
        <time>2017-03-26T21:01:45Z</time>
      </trkpt>
      <trkpt lat="44.43973" lon="6.74287">
        <ele>1273</ele>
        <time>2017-03-26T21:01:57Z</time>
      </trkpt>
      <trkpt lat="44.43986" lon="6.74277">
        <ele>1273</ele>
        <time>2017-03-26T21:02:13Z</time>
      </trkpt>
      <trkpt lat="44.44003" lon="6.74273">
        <ele>1267</ele>
        <time>2017-03-26T21:02:28Z</time>
      </trkpt>
      <trkpt lat="44.44036" lon="6.74275">
        <ele>1265</ele>
        <time>2017-03-26T21:02:35Z</time>
      </trkpt>
      <trkpt lat="44.44051" lon="6.74274">
        <ele>1265</ele>
        <time>2017-03-26T21:02:40Z</time>
      </trkpt>
      <trkpt lat="44.44069" lon="6.74267">
        <ele>1265</ele>
        <time>2017-03-26T21:02:42Z</time>
      </trkpt>
      <trkpt lat="44.44089" lon="6.74252">
        <ele>1265</ele>
        <time>2017-03-26T21:02:46Z</time>
      </trkpt>
      <trkpt lat="44.44127" lon="6.74211">
        <ele>1272</ele>
        <time>2017-03-26T21:02:49Z</time>
      </trkpt>
      <trkpt lat="44.44145" lon="6.74199">
        <ele>1272</ele>
        <time>2017-03-26T21:03:04Z</time>
      </trkpt>
      <trkpt lat="44.44155" lon="6.74194">
        <ele>1272</ele>
        <time>2017-03-26T21:03:08Z</time>
      </trkpt>
      <trkpt lat="44.4417" lon="6.74193">
        <ele>1270</ele>
        <time>2017-03-26T21:03:21Z</time>
      </trkpt>
      <trkpt lat="44.44186" lon="6.74195">
        <ele>1270</ele>
        <time>2017-03-26T21:03:40Z</time>
      </trkpt>
      <trkpt lat="44.44251" lon="6.74205">
        <ele>1275</ele>
        <time>2017-03-26T21:03:42Z</time>
      </trkpt>
      <trkpt lat="44.44296" lon="6.7421">
        <ele>1275</ele>
        <time>2017-03-26T21:03:57Z</time>
      </trkpt>
      <trkpt lat="44.44327" lon="6.74217">
        <ele>1274</ele>
        <time>2017-03-26T21:04:12Z</time>
      </trkpt>
      <trkpt lat="44.44355" lon="6.74232">
        <ele>1277</ele>
        <time>2017-03-26T21:04:18Z</time>
      </trkpt>
      <trkpt lat="44.44389" lon="6.74254">
        <ele>1270</ele>
        <time>2017-03-26T21:04:22Z</time>
      </trkpt>
      <trkpt lat="44.44408" lon="6.7426">
        <ele>1272</ele>
        <time>2017-03-26T21:04:24Z</time>
      </trkpt>
      <trkpt lat="44.44427" lon="6.74261">
        <ele>1272</ele>
        <time>2017-03-26T21:04:29Z</time>
      </trkpt>
      <trkpt lat="44.44451" lon="6.74259">
        <ele>1269</ele>
        <time>2017-03-26T21:04:44Z</time>
      </trkpt>
      <trkpt lat="44.44475" lon="6.7425">
        <ele>1274</ele>
        <time>2017-03-26T21:04:47Z</time>
      </trkpt>
      <trkpt lat="44.44496" lon="6.74239">
        <ele>1271</ele>
        <time>2017-03-26T21:04:51Z</time>
      </trkpt>
      <trkpt lat="44.44553" lon="6.74201">
        <ele>1270</ele>
        <time>2017-03-26T21:04:59Z</time>
      </trkpt>
      <trkpt lat="44.44594" lon="6.74167">
        <ele>1267</ele>
        <time>2017-03-26T21:05:04Z</time>
      </trkpt>
      <trkpt lat="44.44669" lon="6.74088">
        <ele>1267</ele>
        <time>2017-03-26T21:05:11Z</time>
      </trkpt>
      <trkpt lat="44.44724" lon="6.74038">
        <ele>1272</ele>
        <time>2017-03-26T21:05:26Z</time>
      </trkpt>
      <trkpt lat="44.44748" lon="6.74024">
        <ele>1273</ele>
        <time>2017-03-26T21:05:45Z</time>
      </trkpt>
      <trkpt lat="44.44773" lon="6.74019">
        <ele>1271</ele>
        <time>2017-03-26T21:05:59Z</time>
      </trkpt>
      <trkpt lat="44.44803" lon="6.74023">
        <ele>1270</ele>
        <time>2017-03-26T21:06:10Z</time>
      </trkpt>
      <trkpt lat="44.44829" lon="6.74029">
        <ele>1270</ele>
        <time>2017-03-26T21:06:26Z</time>
      </trkpt>
      <trkpt lat="44.44912" lon="6.74054">
        <ele>1268</ele>
        <time>2017-03-26T21:06:28Z</time>
      </trkpt>
      <trkpt lat="44.44962" lon="6.74063">
        <ele>1273</ele>
        <time>2017-03-26T21:06:42Z</time>
      </trkpt>
      <trkpt lat="44.44978" lon="6.74068">
        <ele>1273</ele>
        <time>2017-03-26T21:07:02Z</time>
      </trkpt>
      <trkpt lat="44.44997" lon="6.74081">
        <ele>1272</ele>
        <time>2017-03-26T21:07:15Z</time>
      </trkpt>
      <trkpt lat="44.45057" lon="6.74144">
        <ele>1273</ele>
        <time>2017-03-26T21:07:18Z</time>
      </trkpt>
      <trkpt lat="44.45085" lon="6.74176">
        <ele>1273</ele>
        <time>2017-03-26T21:07:37Z</time>
      </trkpt>
      <trkpt lat="44.4513" lon="6.74222">
        <ele>1277</ele>
        <time>2017-03-26T21:07:54Z</time>
      </trkpt>
      <trkpt lat="44.45169" lon="6.74254">
        <ele>1282</ele>
        <time>2017-03-26T21:08:09Z</time>
      </trkpt>
      <trkpt lat="44.45196" lon="6.74275">
        <ele>1287</ele>
        <time>2017-03-26T21:08:21Z</time>
      </trkpt>
      <trkpt lat="44.45225" lon="6.74292">
        <ele>1287</ele>
        <time>2017-03-26T21:08:35Z</time>
      </trkpt>
      <trkpt lat="44.45253" lon="6.74309">
        <ele>1286</ele>
        <time>2017-03-26T21:08:38Z</time>
      </trkpt>
      <trkpt lat="44.45266" lon="6.74322">
        <ele>1284</ele>
        <time>2017-03-26T21:08:51Z</time>
      </trkpt>
      <trkpt lat="44.45296" lon="6.74368">
        <ele>1279</ele>
        <time>2017-03-26T21:09:11Z</time>
      </trkpt>
      <trkpt lat="44.4531" lon="6.74379">
        <ele>1278</ele>
        <time>2017-03-26T21:09:22Z</time>
      </trkpt>
      <trkpt lat="44.4533" lon="6.74386">
        <ele>1278</ele>
        <time>2017-03-26T21:09:35Z</time>
      </trkpt>
      <trkpt lat="44.45346" lon="6.74386">
        <ele>1279</ele>
        <time>2017-03-26T21:09:49Z</time>
      </trkpt>
      <trkpt lat="44.45361" lon="6.7438">
        <ele>1280</ele>
        <time>2017-03-26T21:09:59Z</time>
      </trkpt>
      <trkpt lat="44.45376" lon="6.74371">
        <ele>1280</ele>
        <time>2017-03-26T21:10:18Z</time>
      </trkpt>
      <trkpt lat="44.4539" lon="6.74365">
        <ele>1281</ele>
        <time>2017-03-26T21:10:20Z</time>
      </trkpt>
      <trkpt lat="44.454" lon="6.74363">
        <ele>1281</ele>
        <time>2017-03-26T21:10:38Z</time>
      </trkpt>
      <trkpt lat="44.45473" lon="6.74365">
        <ele>1286</ele>
        <time>2017-03-26T21:10:53Z</time>
      </trkpt>
      <trkpt lat="44.45515" lon="6.74367">
        <ele>1294</ele>
        <time>2017-03-26T21:11:03Z</time>
      </trkpt>
      <trkpt lat="44.45535" lon="6.74374">
        <ele>1294</ele>
        <time>2017-03-26T21:11:07Z</time>
      </trkpt>
      <trkpt lat="44.45556" lon="6.74389">
        <ele>1292</ele>
        <time>2017-03-26T21:11:25Z</time>
      </trkpt>
      <trkpt lat="44.45578" lon="6.74402">
        <ele>1289</ele>
        <time>2017-03-26T21:11:39Z</time>
      </trkpt>
      <trkpt lat="44.45602" lon="6.7441">
        <ele>1292</ele>
        <time>2017-03-26T21:11:47Z</time>
      </trkpt>
      <trkpt lat="44.45672" lon="6.74411">
        <ele>1292</ele>
        <time>2017-03-26T21:11:50Z</time>
      </trkpt>
      <trkpt lat="44.45689" lon="6.74416">
        <ele>1296</ele>
        <time>2017-03-26T21:11:56Z</time>
      </trkpt>
      <trkpt lat="44.4572" lon="6.74437">
        <ele>1289</ele>
        <time>2017-03-26T21:12:03Z</time>
      </trkpt>
      <trkpt lat="44.45768" lon="6.74472">
        <ele>1291</ele>
        <time>2017-03-26T21:12:17Z</time>
      </trkpt>
      <trkpt lat="44.45784" lon="6.74488">
        <ele>1291</ele>
        <time>2017-03-26T21:12:34Z</time>
      </trkpt>
      <trkpt lat="44.45797" lon="6.74505">
        <ele>1288</ele>
        <time>2017-03-26T21:12:43Z</time>
      </trkpt>
      <trkpt lat="44.4581" lon="6.74538">
        <ele>1288</ele>
        <time>2017-03-26T21:12:55Z</time>
      </trkpt>
      <trkpt lat="44.45815" lon="6.74561">
        <ele>1288</ele>
        <time>2017-03-26T21:13:08Z</time>
      </trkpt>
      <trkpt lat="44.45817" lon="6.74593">
        <ele>1287</ele>
        <time>2017-03-26T21:13:28Z</time>
      </trkpt>
      <trkpt lat="44.45819" lon="6.74613">
        <ele>1286</ele>
        <time>2017-03-26T21:13:45Z</time>
      </trkpt>
      <trkpt lat="44.45821" lon="6.74624">
        <ele>1286</ele>
        <time>2017-03-26T21:13:48Z</time>
      </trkpt>
      <trkpt lat="44.45828" lon="6.7464">
        <ele>1285</ele>
        <time>2017-03-26T21:13:51Z</time>
      </trkpt>
      <trkpt lat="44.45837" lon="6.74654">
        <ele>1288</ele>
        <time>2017-03-26T21:14:04Z</time>
      </trkpt>
      <trkpt lat="44.45847" lon="6.74663">
        <ele>1288</ele>
        <time>2017-03-26T21:14:08Z</time>
      </trkpt>
      <trkpt lat="44.45869" lon="6.74672">
        <ele>1287</ele>
        <time>2017-03-26T21:14:24Z</time>
      </trkpt>
      <trkpt lat="44.45904" lon="6.74674">
        <ele>1291</ele>
        <time>2017-03-26T21:14:35Z</time>
      </trkpt>
      <trkpt lat="44.45939" lon="6.74679">
        <ele>1293</ele>
        <time>2017-03-26T21:14:38Z</time>
      </trkpt>
      <trkpt lat="44.45972" lon="6.7469">
        <ele>1293</ele>
        <time>2017-03-26T21:14:55Z</time>
      </trkpt>
      <trkpt lat="44.45992" lon="6.74699">
        <ele>1292</ele>
        <time>2017-03-26T21:15:08Z</time>
      </trkpt>
      <trkpt lat="44.46026" lon="6.74723">
        <ele>1296</ele>
        <time>2017-03-26T21:15:25Z</time>
      </trkpt>
      <trkpt lat="44.46061" lon="6.74755">
        <ele>1292</ele>
        <time>2017-03-26T21:15:38Z</time>
      </trkpt>
      <trkpt lat="44.46092" lon="6.74793">
        <ele>1301</ele>
        <time>2017-03-26T21:15:42Z</time>
      </trkpt>
      <trkpt lat="44.46112" lon="6.74826">
        <ele>1300</ele>
        <time>2017-03-26T21:15:54Z</time>
      </trkpt>
      <trkpt lat="44.46163" lon="6.74903">
        <ele>1292</ele>
        <time>2017-03-26T21:16:05Z</time>
      </trkpt>
      <trkpt lat="44.46221" lon="6.7498">
        <ele>1295</ele>
        <time>2017-03-26T21:16:08Z</time>
      </trkpt>
      <trkpt lat="44.46242" lon="6.75002">
        <ele>1292</ele>
        <time>2017-03-26T21:16:27Z</time>
      </trkpt>
      <trkpt lat="44.46256" lon="6.75011">
        <ele>1296</ele>
        <time>2017-03-26T21:16:45Z</time>
      </trkpt>
      <trkpt lat="44.46296" lon="6.75023">
        <ele>1300</ele>
        <time>2017-03-26T21:16:48Z</time>
      </trkpt>
      <trkpt lat="44.46316" lon="6.7503">
        <ele>1302</ele>
        <time>2017-03-26T21:17:08Z</time>
      </trkpt>
      <trkpt lat="44.46329" lon="6.75037">
        <ele>1302</ele>
        <time>2017-03-26T21:17:13Z</time>
      </trkpt>
      <trkpt lat="44.46345" lon="6.7505">
        <ele>1315</ele>
        <time>2017-03-26T21:17:33Z</time>
      </trkpt>
      <trkpt lat="44.46355" lon="6.75062">
        <ele>1314</ele>
        <time>2017-03-26T21:17:47Z</time>
      </trkpt>
      <trkpt lat="44.4646" lon="6.75195">
        <ele>1305</ele>
        <time>2017-03-26T21:17:51Z</time>
      </trkpt>
      <trkpt lat="44.4648" lon="6.75226">
        <ele>1304</ele>
        <time>2017-03-26T21:18:10Z</time>
      </trkpt>
      <trkpt lat="44.46508" lon="6.75281">
        <ele>1308</ele>
        <time>2017-03-26T21:18:15Z</time>
      </trkpt>
      <trkpt lat="44.46517" lon="6.75303">
        <ele>1307</ele>
        <time>2017-03-26T21:18:35Z</time>
      </trkpt>
      <trkpt lat="44.46525" lon="6.75336">
        <ele>1297</ele>
        <time>2017-03-26T21:18:51Z</time>
      </trkpt>
      <trkpt lat="44.46527" lon="6.75375">
        <ele>1297</ele>
        <time>2017-03-26T21:19:05Z</time>
      </trkpt>
      <trkpt lat="44.46524" lon="6.75414">
        <ele>1295</ele>
        <time>2017-03-26T21:19:25Z</time>
      </trkpt>
      <trkpt lat="44.46504" lon="6.75551">
        <ele>1290</ele>
        <time>2017-03-26T21:19:35Z</time>
      </trkpt>
      <trkpt lat="44.46494" lon="6.75633">
        <ele>1294</ele>
        <time>2017-03-26T21:19:49Z</time>
      </trkpt>
      <trkpt lat="44.46495" lon="6.75675">
        <ele>1299</ele>
        <time>2017-03-26T21:20:07Z</time>
      </trkpt>
      <trkpt lat="44.46499" lon="6.75699">
        <ele>1306</ele>
        <time>2017-03-26T21:20:25Z</time>
      </trkpt>
      <trkpt lat="44.46505" lon="6.75723">
        <ele>1297</ele>
        <time>2017-03-26T21:20:32Z</time>
      </trkpt>
      <trkpt lat="44.4655" lon="6.75815">
        <ele>1307</ele>
        <time>2017-03-26T21:20:48Z</time>
      </trkpt>
      <trkpt lat="44.46618" lon="6.7595">
        <ele>1306</ele>
        <time>2017-03-26T21:21:02Z</time>
      </trkpt>
      <trkpt lat="44.46667" lon="6.76033">
        <ele>1298</ele>
        <time>2017-03-26T21:21:13Z</time>
      </trkpt>
      <trkpt lat="44.46689" lon="6.76074">
        <ele>1299</ele>
        <time>2017-03-26T21:21:16Z</time>
      </trkpt>
      <trkpt lat="44.46729" lon="6.76158">
        <ele>1303</ele>
        <time>2017-03-26T21:21:30Z</time>
      </trkpt>
      <trkpt lat="44.46745" lon="6.76178">
        <ele>1308</ele>
        <time>2017-03-26T21:21:41Z</time>
      </trkpt>
      <trkpt lat="44.46754" lon="6.76186">
        <ele>1304</ele>
        <time>2017-03-26T21:21:53Z</time>
      </trkpt>
      <trkpt lat="44.46774" lon="6.76197">
        <ele>1306</ele>
        <time>2017-03-26T21:22:05Z</time>
      </trkpt>
      <trkpt lat="44.47023" lon="6.76321">
        <ele>1306</ele>
        <time>2017-03-26T21:22:23Z</time>
      </trkpt>
      <trkpt lat="44.47044" lon="6.76334">
        <ele>1313</ele>
        <time>2017-03-26T21:22:39Z</time>
      </trkpt>
      <trkpt lat="44.47065" lon="6.76352">
        <ele>1313</ele>
        <time>2017-03-26T21:22:46Z</time>
      </trkpt>
      <trkpt lat="44.47088" lon="6.76372">
        <ele>1310</ele>
        <time>2017-03-26T21:22:52Z</time>
      </trkpt>
      <trkpt lat="44.47098" lon="6.76376">
        <ele>1310</ele>
        <time>2017-03-26T21:23:08Z</time>
      </trkpt>
      <trkpt lat="44.47116" lon="6.76378">
        <ele>1310</ele>
        <time>2017-03-26T21:23:15Z</time>
      </trkpt>
      <trkpt lat="44.47137" lon="6.76374">
        <ele>1309</ele>
        <time>2017-03-26T21:23:24Z</time>
      </trkpt>
      <trkpt lat="44.47152" lon="6.76367">
        <ele>1309</ele>
        <time>2017-03-26T21:23:32Z</time>
      </trkpt>
      <trkpt lat="44.4719" lon="6.76339">
        <ele>1308</ele>
        <time>2017-03-26T21:23:51Z</time>
      </trkpt>
      <trkpt lat="44.47222" lon="6.76318">
        <ele>1307</ele>
        <time>2017-03-26T21:24:01Z</time>
      </trkpt>
      <trkpt lat="44.47231" lon="6.76314">
        <ele>1307</ele>
        <time>2017-03-26T21:24:21Z</time>
      </trkpt>
      <trkpt lat="44.47245" lon="6.76312">
        <ele>1308</ele>
        <time>2017-03-26T21:24:38Z</time>
      </trkpt>
      <trkpt lat="44.47255" lon="6.76296">
        <ele>1308</ele>
        <time>2017-03-26T21:24:53Z</time>
      </trkpt>
      <trkpt lat="44.4728" lon="6.7628">
        <ele>1308</ele>
        <time>2017-03-26T21:25:10Z</time>
      </trkpt>
      <trkpt lat="44.47458" lon="6.76177">
        <ele>1310</ele>
        <time>2017-03-26T21:25:13Z</time>
      </trkpt>
      <trkpt lat="44.47648" lon="6.7607">
        <ele>1309</ele>
        <time>2017-03-26T21:25:17Z</time>
      </trkpt>
      <trkpt lat="44.47665" lon="6.76058">
        <ele>1309</ele>
        <time>2017-03-26T21:25:29Z</time>
      </trkpt>
      <trkpt lat="44.4768" lon="6.76043">
        <ele>1312</ele>
        <time>2017-03-26T21:25:41Z</time>
      </trkpt>
      <trkpt lat="44.47693" lon="6.76025">
        <ele>1312</ele>
        <time>2017-03-26T21:25:44Z</time>
      </trkpt>
      <trkpt lat="44.47713" lon="6.75987">
        <ele>1311</ele>
        <time>2017-03-26T21:25:58Z</time>
      </trkpt>
      <trkpt lat="44.4779" lon="6.75821">
        <ele>1313</ele>
        <time>2017-03-26T21:26:03Z</time>
      </trkpt>
      <trkpt lat="44.4781" lon="6.75789">
        <ele>1314</ele>
        <time>2017-03-26T21:26:17Z</time>
      </trkpt>
      <trkpt lat="44.47834" lon="6.75756">
        <ele>1316</ele>
        <time>2017-03-26T21:26:28Z</time>
      </trkpt>
      <trkpt lat="44.47868" lon="6.75716">
        <ele>1319</ele>
        <time>2017-03-26T21:26:30Z</time>
      </trkpt>
      <trkpt lat="44.47943" lon="6.75641">
        <ele>1324</ele>
        <time>2017-03-26T21:26:41Z</time>
      </trkpt>
      <trkpt lat="44.47966" lon="6.75614">
        <ele>1325</ele>
        <time>2017-03-26T21:26:56Z</time>
      </trkpt>
      <trkpt lat="44.47988" lon="6.75581">
        <ele>1325</ele>
        <time>2017-03-26T21:27:05Z</time>
      </trkpt>
      <trkpt lat="44.48009" lon="6.7554">
        <ele>1324</ele>
        <time>2017-03-26T21:27:09Z</time>
      </trkpt>
      <trkpt lat="44.48024" lon="6.75498">
        <ele>1321</ele>
        <time>2017-03-26T21:27:21Z</time>
      </trkpt>
      <trkpt lat="44.48047" lon="6.75398">
        <ele>1329</ele>
        <time>2017-03-26T21:27:34Z</time>
      </trkpt>
      <trkpt lat="44.48057" lon="6.75343">
        <ele>1331</ele>
        <time>2017-03-26T21:27:51Z</time>
      </trkpt>
      <trkpt lat="44.4807" lon="6.75312">
        <ele>1343</ele>
        <time>2017-03-26T21:28:07Z</time>
      </trkpt>
      <trkpt lat="44.48084" lon="6.75289">
        <ele>1331</ele>
        <time>2017-03-26T21:28:19Z</time>
      </trkpt>
      <trkpt lat="44.48133" lon="6.75208">
        <ele>1343</ele>
        <time>2017-03-26T21:28:22Z</time>
      </trkpt>
      <trkpt lat="44.48164" lon="6.75166">
        <ele>1338</ele>
        <time>2017-03-26T21:28:28Z</time>
      </trkpt>
      <trkpt lat="44.48259" lon="6.75058">
        <ele>1333</ele>
        <time>2017-03-26T21:28:44Z</time>
      </trkpt>
      <trkpt lat="44.48334" lon="6.74979">
        <ele>1333</ele>
        <time>2017-03-26T21:29:02Z</time>
      </trkpt>
      <trkpt lat="44.48359" lon="6.74951">
        <ele>1335</ele>
        <time>2017-03-26T21:29:07Z</time>
      </trkpt>
      <trkpt lat="44.48404" lon="6.74883">
        <ele>1347</ele>
        <time>2017-03-26T21:29:20Z</time>
      </trkpt>
      <trkpt lat="44.48432" lon="6.74849">
        <ele>1344</ele>
        <time>2017-03-26T21:29:25Z</time>
      </trkpt>
      <trkpt lat="44.4845" lon="6.74832">
        <ele>1355</ele>
        <time>2017-03-26T21:29:37Z</time>
      </trkpt>
      <trkpt lat="44.48467" lon="6.7482">
        <ele>1354</ele>
        <time>2017-03-26T21:29:39Z</time>
      </trkpt>
      <trkpt lat="44.48532" lon="6.74774">
        <ele>1345</ele>
        <time>2017-03-26T21:29:45Z</time>
      </trkpt>
      <trkpt lat="44.48546" lon="6.74768">
        <ele>1343</ele>
        <time>2017-03-26T21:29:52Z</time>
      </trkpt>
      <trkpt lat="44.48595" lon="6.74753">
        <ele>1338</ele>
        <time>2017-03-26T21:30:05Z</time>
      </trkpt>
      <trkpt lat="44.48615" lon="6.74739">
        <ele>1343</ele>
        <time>2017-03-26T21:30:18Z</time>
      </trkpt>
      <trkpt lat="44.48628" lon="6.74724">
        <ele>1343</ele>
        <time>2017-03-26T21:30:33Z</time>
      </trkpt>
      <trkpt lat="44.48637" lon="6.74705">
        <ele>1344</ele>
        <time>2017-03-26T21:30:49Z</time>
      </trkpt>
      <trkpt lat="44.48693" lon="6.7462">
        <ele>1351</ele>
        <time>2017-03-26T21:31:08Z</time>
      </trkpt>
      <trkpt lat="44.48717" lon="6.74597">
        <ele>1350</ele>
        <time>2017-03-26T21:31:19Z</time>
      </trkpt>
      <trkpt lat="44.48737" lon="6.74584">
        <ele>1348</ele>
        <time>2017-03-26T21:31:25Z</time>
      </trkpt>
      <trkpt lat="44.48771" lon="6.74566">
        <ele>1353</ele>
        <time>2017-03-26T21:31:30Z</time>
      </trkpt>
      <trkpt lat="44.48804" lon="6.74544">
        <ele>1355</ele>
        <time>2017-03-26T21:31:41Z</time>
      </trkpt>
      <trkpt lat="44.4882" lon="6.7453">
        <ele>1355</ele>
        <time>2017-03-26T21:31:56Z</time>
      </trkpt>
      <trkpt lat="44.48843" lon="6.74505">
        <ele>1353</ele>
        <time>2017-03-26T21:32:03Z</time>
      </trkpt>
      <trkpt lat="44.48922" lon="6.74366">
        <ele>1355</ele>
        <time>2017-03-26T21:32:15Z</time>
      </trkpt>
      <trkpt lat="44.48962" lon="6.74331">
        <ele>1364</ele>
        <time>2017-03-26T21:32:31Z</time>
      </trkpt>
      <trkpt lat="44.49035" lon="6.74311">
        <ele>1356</ele>
        <time>2017-03-26T21:32:38Z</time>
      </trkpt>
      <trkpt lat="44.49115" lon="6.74229">
        <ele>1366</ele>
        <time>2017-03-26T21:32:45Z</time>
      </trkpt>
      <trkpt lat="44.49163" lon="6.74209">
        <ele>1366</ele>
        <time>2017-03-26T21:32:49Z</time>
      </trkpt>
      <trkpt lat="44.49292" lon="6.74198">
        <ele>1366</ele>
        <time>2017-03-26T21:32:56Z</time>
      </trkpt>
      <trkpt lat="44.49325" lon="6.7418">
        <ele>1366</ele>
        <time>2017-03-26T21:33:15Z</time>
      </trkpt>
      <trkpt lat="44.49396" lon="6.74136">
        <ele>1371</ele>
        <time>2017-03-26T21:33:32Z</time>
      </trkpt>
      <trkpt lat="44.49491" lon="6.74108">
        <ele>1371</ele>
        <time>2017-03-26T21:33:43Z</time>
      </trkpt>
      <trkpt lat="44.49589" lon="6.74082">
        <ele>1374</ele>
        <time>2017-03-26T21:33:53Z</time>
      </trkpt>
      <trkpt lat="44.49686" lon="6.74009">
        <ele>1376</ele>
        <time>2017-03-26T21:33:55Z</time>
      </trkpt>
      <trkpt lat="44.49831" lon="6.7392">
        <ele>1388</ele>
        <time>2017-03-26T21:34:01Z</time>
      </trkpt>
      <trkpt lat="44.49943" lon="6.73944">
        <ele>1389</ele>
        <time>2017-03-26T21:34:11Z</time>
      </trkpt>
      <trkpt lat="44.50094" lon="6.74054">
        <ele>1389</ele>
        <time>2017-03-26T21:34:28Z</time>
      </trkpt>
      <trkpt lat="44.5021" lon="6.74062">
        <ele>1391</ele>
        <time>2017-03-26T21:34:34Z</time>
      </trkpt>
      <trkpt lat="44.50277" lon="6.74138">
        <ele>1395</ele>
        <time>2017-03-26T21:34:47Z</time>
      </trkpt>
      <trkpt lat="44.50302" lon="6.74283">
        <ele>1415</ele>
        <time>2017-03-26T21:35:05Z</time>
      </trkpt>
      <trkpt lat="44.50332" lon="6.74301">
        <ele>1415</ele>
        <time>2017-03-26T21:35:20Z</time>
      </trkpt>
      <trkpt lat="44.50399" lon="6.74338">
        <ele>1442</ele>
        <time>2017-03-26T21:35:35Z</time>
      </trkpt>
      <trkpt lat="44.50453" lon="6.74367">
        <ele>1455</ele>
        <time>2017-03-26T21:35:41Z</time>
      </trkpt>
      <trkpt lat="44.50471" lon="6.74447">
        <ele>1431</ele>
        <time>2017-03-26T21:35:43Z</time>
      </trkpt>
      <trkpt lat="44.50507" lon="6.74498">
        <ele>1410</ele>
        <time>2017-03-26T21:36:01Z</time>
      </trkpt>
      <trkpt lat="44.50904" lon="6.7464">
        <ele>1428</ele>
        <time>2017-03-26T21:36:11Z</time>
      </trkpt>
      <trkpt lat="44.50986" lon="6.74669">
        <ele>1422</ele>
        <time>2017-03-26T21:36:30Z</time>
      </trkpt>
      <trkpt lat="44.51015" lon="6.74649">
        <ele>1427</ele>
        <time>2017-03-26T21:36:48Z</time>
      </trkpt>
      <trkpt lat="44.51051" lon="6.74513">
        <ele>1441</ele>
        <time>2017-03-26T21:37:05Z</time>
      </trkpt>
      <trkpt lat="44.51142" lon="6.74421">
        <ele>1452</ele>
        <time>2017-03-26T21:37:24Z</time>
      </trkpt>
      <trkpt lat="44.51302" lon="6.74423">
        <ele>1456</ele>
        <time>2017-03-26T21:37:32Z</time>
      </trkpt>
      <trkpt lat="44.51547" lon="6.74411">
        <ele>1475</ele>
        <time>2017-03-26T21:37:49Z</time>
      </trkpt>
      <trkpt lat="44.51562" lon="6.7446">
        <ele>1469</ele>
        <time>2017-03-26T21:37:58Z</time>
      </trkpt>
      <trkpt lat="44.51516" lon="6.74598">
        <ele>1470</ele>
        <time>2017-03-26T21:38:00Z</time>
      </trkpt>
      <trkpt lat="44.51473" lon="6.74685">
        <ele>1461</ele>
        <time>2017-03-26T21:38:12Z</time>
      </trkpt>
      <trkpt lat="44.51457" lon="6.7485">
        <ele>1467</ele>
        <time>2017-03-26T21:38:14Z</time>
      </trkpt>
      <trkpt lat="44.51539" lon="6.75034">
        <ele>1481</ele>
        <time>2017-03-26T21:38:16Z</time>
      </trkpt>
      <trkpt lat="44.51591" lon="6.75077">
        <ele>1485</ele>
        <time>2017-03-26T21:38:25Z</time>
      </trkpt>
      <trkpt lat="44.51706" lon="6.75108">
        <ele>1496</ele>
        <time>2017-03-26T21:38:32Z</time>
      </trkpt>
      <trkpt lat="44.51741" lon="6.75137">
        <ele>1498</ele>
        <time>2017-03-26T21:38:48Z</time>
      </trkpt>
      <trkpt lat="44.51762" lon="6.75196">
        <ele>1504</ele>
        <time>2017-03-26T21:39:01Z</time>
      </trkpt>
      <trkpt lat="44.51771" lon="6.7527">
        <ele>1500</ele>
        <time>2017-03-26T21:39:03Z</time>
      </trkpt>
      <trkpt lat="44.51798" lon="6.75258">
        <ele>1504</ele>
        <time>2017-03-26T21:39:13Z</time>
      </trkpt>
      <trkpt lat="44.51798" lon="6.75153">
        <ele>1516</ele>
        <time>2017-03-26T21:39:33Z</time>
      </trkpt>
      <trkpt lat="44.51716" lon="6.74928">
        <ele>1520</ele>
        <time>2017-03-26T21:39:43Z</time>
      </trkpt>
      <trkpt lat="44.51722" lon="6.74766">
        <ele>1530</ele>
        <time>2017-03-26T21:39:59Z</time>
      </trkpt>
      <trkpt lat="44.51797" lon="6.74601">
        <ele>1550</ele>
        <time>2017-03-26T21:40:15Z</time>
      </trkpt>
      <trkpt lat="44.51843" lon="6.7454">
        <ele>1561</ele>
        <time>2017-03-26T21:40:30Z</time>
      </trkpt>
      <trkpt lat="44.51995" lon="6.74401">
        <ele>1576</ele>
        <time>2017-03-26T21:40:47Z</time>
      </trkpt>
      <trkpt lat="44.52029" lon="6.74343">
        <ele>1588</ele>
        <time>2017-03-26T21:40:57Z</time>
      </trkpt>
      <trkpt lat="44.52038" lon="6.74277">
        <ele>1587</ele>
        <time>2017-03-26T21:41:15Z</time>
      </trkpt>
      <trkpt lat="44.52021" lon="6.74174">
        <ele>1586</ele>
        <time>2017-03-26T21:41:17Z</time>
      </trkpt>
      <trkpt lat="44.52009" lon="6.74099">
        <ele>1586</ele>
        <time>2017-03-26T21:41:19Z</time>
      </trkpt>
      <trkpt lat="44.52027" lon="6.74062">
        <ele>1582</ele>
        <time>2017-03-26T21:41:26Z</time>
      </trkpt>
      <trkpt lat="44.52055" lon="6.7405">
        <ele>1583</ele>
        <time>2017-03-26T21:41:34Z</time>
      </trkpt>
      <trkpt lat="44.52131" lon="6.7406">
        <ele>1592</ele>
        <time>2017-03-26T21:41:46Z</time>
      </trkpt>
      <trkpt lat="44.52194" lon="6.73968">
        <ele>1597</ele>
        <time>2017-03-26T21:41:57Z</time>
      </trkpt>
      <trkpt lat="44.52286" lon="6.73927">
        <ele>1621</ele>
        <time>2017-03-26T21:42:08Z</time>
      </trkpt>
      <trkpt lat="44.52315" lon="6.73831">
        <ele>1622</ele>
        <time>2017-03-26T21:42:13Z</time>
      </trkpt>
      <trkpt lat="44.52301" lon="6.73695">
        <ele>1621</ele>
        <time>2017-03-26T21:42:30Z</time>
      </trkpt>
      <trkpt lat="44.52339" lon="6.7349">
        <ele>1646</ele>
        <time>2017-03-26T21:42:39Z</time>
      </trkpt>
      <trkpt lat="44.52336" lon="6.73368">
        <ele>1647</ele>
        <time>2017-03-26T21:42:53Z</time>
      </trkpt>
      <trkpt lat="44.52404" lon="6.73266">
        <ele>1646</ele>
        <time>2017-03-26T21:43:05Z</time>
      </trkpt>
      <trkpt lat="44.52486" lon="6.7322">
        <ele>1654</ele>
        <time>2017-03-26T21:43:18Z</time>
      </trkpt>
      <trkpt lat="44.52507" lon="6.73047">
        <ele>1669</ele>
        <time>2017-03-26T21:43:21Z</time>
      </trkpt>
      <trkpt lat="44.5251" lon="6.72844">
        <ele>1662</ele>
        <time>2017-03-26T21:43:37Z</time>
      </trkpt>
      <trkpt lat="44.52541" lon="6.72709">
        <ele>1658</ele>
        <time>2017-03-26T21:43:49Z</time>
      </trkpt>
      <trkpt lat="44.52552" lon="6.7269">
        <ele>1658</ele>
        <time>2017-03-26T21:43:51Z</time>
      </trkpt>
      <trkpt lat="44.52608" lon="6.72675">
        <ele>1679</ele>
        <time>2017-03-26T21:44:09Z</time>
      </trkpt>
      <trkpt lat="44.52636" lon="6.7262">
        <ele>1683</ele>
        <time>2017-03-26T21:44:20Z</time>
      </trkpt>
      <trkpt lat="44.52581" lon="6.72602">
        <ele>1662</ele>
        <time>2017-03-26T21:44:35Z</time>
      </trkpt>
      <trkpt lat="44.52556" lon="6.72569">
        <ele>1662</ele>
        <time>2017-03-26T21:44:43Z</time>
      </trkpt>
      <trkpt lat="44.52545" lon="6.7249">
        <ele>1665</ele>
        <time>2017-03-26T21:45:03Z</time>
      </trkpt>
      <trkpt lat="44.52538" lon="6.72369">
        <ele>1664</ele>
        <time>2017-03-26T21:45:12Z</time>
      </trkpt>
      <trkpt lat="44.52558" lon="6.72239">
        <ele>1677</ele>
        <time>2017-03-26T21:45:21Z</time>
      </trkpt>
      <trkpt lat="44.52595" lon="6.721">
        <ele>1700</ele>
        <time>2017-03-26T21:45:23Z</time>
      </trkpt>
      <trkpt lat="44.52657" lon="6.71935">
        <ele>1701</ele>
        <time>2017-03-26T21:45:43Z</time>
      </trkpt>
      <trkpt lat="44.52675" lon="6.71843">
        <ele>1716</ele>
        <time>2017-03-26T21:45:53Z</time>
      </trkpt>
      <trkpt lat="44.52714" lon="6.71803">
        <ele>1730</ele>
        <time>2017-03-26T21:45:56Z</time>
      </trkpt>
      <trkpt lat="44.52714" lon="6.71776">
        <ele>1731</ele>
        <time>2017-03-26T21:46:00Z</time>
      </trkpt>
      <trkpt lat="44.52687" lon="6.71723">
        <ele>1731</ele>
        <time>2017-03-26T21:46:02Z</time>
      </trkpt>
      <trkpt lat="44.52695" lon="6.71511">
        <ele>1748</ele>
        <time>2017-03-26T21:46:21Z</time>
      </trkpt>
      <trkpt lat="44.52714" lon="6.71506">
        <ele>1754</ele>
        <time>2017-03-26T21:46:39Z</time>
      </trkpt>
      <trkpt lat="44.52732" lon="6.71583">
        <ele>1758</ele>
        <time>2017-03-26T21:46:41Z</time>
      </trkpt>
      <trkpt lat="44.52784" lon="6.71704">
        <ele>1773</ele>
        <time>2017-03-26T21:46:56Z</time>
      </trkpt>
      <trkpt lat="44.52808" lon="6.71781">
        <ele>1773</ele>
        <time>2017-03-26T21:47:02Z</time>
      </trkpt>
      <trkpt lat="44.52866" lon="6.72157">
        <ele>1811</ele>
        <time>2017-03-26T21:47:05Z</time>
      </trkpt>
      <trkpt lat="44.52868" lon="6.7222">
        <ele>1806</ele>
        <time>2017-03-26T21:47:23Z</time>
      </trkpt>
      <trkpt lat="44.52885" lon="6.72217">
        <ele>1809</ele>
        <time>2017-03-26T21:47:38Z</time>
      </trkpt>
      <trkpt lat="44.52921" lon="6.71882">
        <ele>1855</ele>
        <time>2017-03-26T21:47:45Z</time>
      </trkpt>
      <trkpt lat="44.52942" lon="6.717">
        <ele>1858</ele>
        <time>2017-03-26T21:47:51Z</time>
      </trkpt>
      <trkpt lat="44.5294" lon="6.7155">
        <ele>1867</ele>
        <time>2017-03-26T21:48:11Z</time>
      </trkpt>
      <trkpt lat="44.52965" lon="6.71363">
        <ele>1876</ele>
        <time>2017-03-26T21:48:23Z</time>
      </trkpt>
      <trkpt lat="44.52953" lon="6.71273">
        <ele>1877</ele>
        <time>2017-03-26T21:48:38Z</time>
      </trkpt>
      <trkpt lat="44.52975" lon="6.71149">
        <ele>1881</ele>
        <time>2017-03-26T21:48:41Z</time>
      </trkpt>
      <trkpt lat="44.53051" lon="6.71018">
        <ele>1906</ele>
        <time>2017-03-26T21:48:51Z</time>
      </trkpt>
      <trkpt lat="44.53078" lon="6.70992">
        <ele>1913</ele>
        <time>2017-03-26T21:48:54Z</time>
      </trkpt>
      <trkpt lat="44.53084" lon="6.71017">
        <ele>1928</ele>
        <time>2017-03-26T21:49:02Z</time>
      </trkpt>
      <trkpt lat="44.53041" lon="6.71118">
        <ele>1911</ele>
        <time>2017-03-26T21:49:07Z</time>
      </trkpt>
      <trkpt lat="44.53041" lon="6.71164">
        <ele>1913</ele>
        <time>2017-03-26T21:49:12Z</time>
      </trkpt>
      <trkpt lat="44.53075" lon="6.71256">
        <ele>1920</ele>
        <time>2017-03-26T21:49:23Z</time>
      </trkpt>
      <trkpt lat="44.53103" lon="6.71305">
        <ele>1934</ele>
        <time>2017-03-26T21:49:38Z</time>
      </trkpt>
      <trkpt lat="44.53125" lon="6.71308">
        <ele>1937</ele>
        <time>2017-03-26T21:49:40Z</time>
      </trkpt>
      <trkpt lat="44.5314" lon="6.71255">
        <ele>1939</ele>
        <time>2017-03-26T21:49:55Z</time>
      </trkpt>
      <trkpt lat="44.5311" lon="6.71133">
        <ele>1940</ele>
        <time>2017-03-26T21:50:05Z</time>
      </trkpt>
      <trkpt lat="44.53117" lon="6.71087">
        <ele>1940</ele>
        <time>2017-03-26T21:50:25Z</time>
      </trkpt>
      <trkpt lat="44.53201" lon="6.70982">
        <ele>1961</ele>
        <time>2017-03-26T21:50:27Z</time>
      </trkpt>
      <trkpt lat="44.5326" lon="6.70896">
        <ele>1980</ele>
        <time>2017-03-26T21:50:30Z</time>
      </trkpt>
      <trkpt lat="44.53292" lon="6.7081">
        <ele>1989</ele>
        <time>2017-03-26T21:50:46Z</time>
      </trkpt>
      <trkpt lat="44.53254" lon="6.70764">
        <ele>1988</ele>
        <time>2017-03-26T21:51:06Z</time>
      </trkpt>
      <trkpt lat="44.53237" lon="6.70737">
        <ele>1982</ele>
        <time>2017-03-26T21:51:17Z</time>
      </trkpt>
      <trkpt lat="44.53231" lon="6.70541">
        <ele>1996</ele>
        <time>2017-03-26T21:51:35Z</time>
      </trkpt>
      <trkpt lat="44.53211" lon="6.70422">
        <ele>2003</ele>
        <time>2017-03-26T21:51:38Z</time>
      </trkpt>
      <trkpt lat="44.53212" lon="6.70263">
        <ele>2019</ele>
        <time>2017-03-26T21:51:51Z</time>
      </trkpt>
      <trkpt lat="44.5318" lon="6.7015">
        <ele>2036</ele>
        <time>2017-03-26T21:51:55Z</time>
      </trkpt>
      <trkpt lat="44.53201" lon="6.70143">
        <ele>2043</ele>
        <time>2017-03-26T21:52:11Z</time>
      </trkpt>
      <trkpt lat="44.53292" lon="6.70396">
        <ele>2041</ele>
        <time>2017-03-26T21:52:31Z</time>
      </trkpt>
      <trkpt lat="44.53323" lon="6.70471">
        <ele>2037</ele>
        <time>2017-03-26T21:52:37Z</time>
      </trkpt>
      <trkpt lat="44.53376" lon="6.70456">
        <ele>2052</ele>
        <time>2017-03-26T21:52:48Z</time>
      </trkpt>
      <trkpt lat="44.53441" lon="6.70464">
        <ele>2063</ele>
        <time>2017-03-26T21:53:01Z</time>
      </trkpt>
      <trkpt lat="44.53506" lon="6.70483">
        <ele>2072</ele>
        <time>2017-03-26T21:53:11Z</time>
      </trkpt>
      <trkpt lat="44.53607" lon="6.70352">
        <ele>2089</ele>
        <time>2017-03-26T21:53:27Z</time>
      </trkpt>
      <trkpt lat="44.53745" lon="6.70301">
        <ele>2100</ele>
        <time>2017-03-26T21:53:39Z</time>
      </trkpt>
      <trkpt lat="44.53884" lon="6.7028">
        <ele>2115</ele>
        <time>2017-03-26T21:53:47Z</time>
      </trkpt>
      <trkpt lat="44.53983" lon="6.70224">
        <ele>2105</ele>
        <time>2017-03-26T21:53:49Z</time>
      </trkpt>
      <trkpt lat="44.54026" lon="6.70231">
        <ele>2100</ele>
        <time>2017-03-26T21:54:09Z</time>
      </trkpt>
      <trkpt lat="44.54065" lon="6.70251">
        <ele>2104</ele>
        <time>2017-03-26T21:54:17Z</time>
      </trkpt>
      <trkpt lat="44.54177" lon="6.70259">
        <ele>2094</ele>
        <time>2017-03-26T21:54:25Z</time>
      </trkpt>
      <trkpt lat="44.54227" lon="6.7029">
        <ele>2097</ele>
        <time>2017-03-26T21:54:29Z</time>
      </trkpt>
      <trkpt lat="44.54262" lon="6.70287">
        <ele>2093</ele>
        <time>2017-03-26T21:54:35Z</time>
      </trkpt>
      <trkpt lat="44.54353" lon="6.70267">
        <ele>2091</ele>
        <time>2017-03-26T21:54:39Z</time>
      </trkpt>
      <trkpt lat="44.54443" lon="6.70248">
        <ele>2080</ele>
        <time>2017-03-26T21:54:41Z</time>
      </trkpt>
      <trkpt lat="44.54551" lon="6.7022">
        <ele>2073</ele>
        <time>2017-03-26T21:54:54Z</time>
      </trkpt>
      <trkpt lat="44.54656" lon="6.70232">
        <ele>2066</ele>
        <time>2017-03-26T21:55:13Z</time>
      </trkpt>
      <trkpt lat="44.54767" lon="6.70268">
        <ele>2058</ele>
        <time>2017-03-26T21:55:27Z</time>
      </trkpt>
      <trkpt lat="44.54798" lon="6.70281">
        <ele>2060</ele>
        <time>2017-03-26T21:55:43Z</time>
      </trkpt>
      <trkpt lat="44.54829" lon="6.70265">
        <ele>2057</ele>
        <time>2017-03-26T21:55:51Z</time>
      </trkpt>
      <trkpt lat="44.54941" lon="6.70179">
        <ele>2051</ele>
        <time>2017-03-26T21:55:53Z</time>
      </trkpt>
      <trkpt lat="44.5506" lon="6.70099">
        <ele>2036</ele>
        <time>2017-03-26T21:55:58Z</time>
      </trkpt>
      <trkpt lat="44.55118" lon="6.70052">
        <ele>2023</ele>
        <time>2017-03-26T21:56:18Z</time>
      </trkpt>
      <trkpt lat="44.55164" lon="6.70039">
        <ele>2019</ele>
        <time>2017-03-26T21:56:28Z</time>
      </trkpt>
      <trkpt lat="44.55222" lon="6.70049">
        <ele>2017</ele>
        <time>2017-03-26T21:56:42Z</time>
      </trkpt>
      <trkpt lat="44.55256" lon="6.70031">
        <ele>2015</ele>
        <time>2017-03-26T21:56:56Z</time>
      </trkpt>
      <trkpt lat="44.55275" lon="6.69983">
        <ele>2006</ele>
        <time>2017-03-26T21:57:11Z</time>
      </trkpt>
      <trkpt lat="44.55315" lon="6.69932">
        <ele>2003</ele>
        <time>2017-03-26T21:57:28Z</time>
      </trkpt>
      <trkpt lat="44.55409" lon="6.69894">
        <ele>1999</ele>
        <time>2017-03-26T21:57:43Z</time>
      </trkpt>
      <trkpt lat="44.55544" lon="6.6985">
        <ele>2001</ele>
        <time>2017-03-26T21:57:53Z</time>
      </trkpt>
      <trkpt lat="44.55638" lon="6.69727">
        <ele>1994</ele>
        <time>2017-03-26T21:57:56Z</time>
      </trkpt>
      <trkpt lat="44.55685" lon="6.69576">
        <ele>1990</ele>
        <time>2017-03-26T21:58:14Z</time>
      </trkpt>
      <trkpt lat="44.55764" lon="6.69413">
        <ele>1991</ele>
        <time>2017-03-26T21:58:27Z</time>
      </trkpt>
      <trkpt lat="44.56002" lon="6.69196">
        <ele>1976</ele>
        <time>2017-03-26T21:58:41Z</time>
      </trkpt>
      <trkpt lat="44.56038" lon="6.69103">
        <ele>1962</ele>
        <time>2017-03-26T21:58:54Z</time>
      </trkpt>
      <trkpt lat="44.56138" lon="6.69005">
        <ele>1953</ele>
        <time>2017-03-26T21:59:07Z</time>
      </trkpt>
      <trkpt lat="44.56235" lon="6.68953">
        <ele>1951</ele>
        <time>2017-03-26T21:59:19Z</time>
      </trkpt>
      <trkpt lat="44.5631" lon="6.68911">
        <ele>1953</ele>
        <time>2017-03-26T21:59:31Z</time>
      </trkpt>
      <trkpt lat="44.564" lon="6.68791">
        <ele>1951</ele>
        <time>2017-03-26T21:59:44Z</time>
      </trkpt>
      <trkpt lat="44.56466" lon="6.68757">
        <ele>1943</ele>
        <time>2017-03-26T21:59:48Z</time>
      </trkpt>
      <trkpt lat="44.56537" lon="6.68709">
        <ele>1935</ele>
        <time>2017-03-26T22:00:05Z</time>
      </trkpt>
      <trkpt lat="44.56673" lon="6.68549">
        <ele>1931</ele>
        <time>2017-03-26T22:00:12Z</time>
      </trkpt>
      <trkpt lat="44.56707" lon="6.68504">
        <ele>1931</ele>
        <time>2017-03-26T22:00:14Z</time>
      </trkpt>
      <trkpt lat="44.56755" lon="6.685">
        <ele>1927</ele>
        <time>2017-03-26T22:00:34Z</time>
      </trkpt>
      <trkpt lat="44.5684" lon="6.68494">
        <ele>1919</ele>
        <time>2017-03-26T22:00:36Z</time>
      </trkpt>
      <trkpt lat="44.56931" lon="6.68448">
        <ele>1904</ele>
        <time>2017-03-26T22:00:45Z</time>
      </trkpt>
      <trkpt lat="44.56947" lon="6.68418">
        <ele>1904</ele>
        <time>2017-03-26T22:00:52Z</time>
      </trkpt>
      <trkpt lat="44.56918" lon="6.68335">
        <ele>1901</ele>
        <time>2017-03-26T22:01:08Z</time>
      </trkpt>
      <trkpt lat="44.56932" lon="6.68297">
        <ele>1896</ele>
        <time>2017-03-26T22:01:14Z</time>
      </trkpt>
      <trkpt lat="44.56976" lon="6.68259">
        <ele>1894</ele>
        <time>2017-03-26T22:01:16Z</time>
      </trkpt>
      <trkpt lat="44.57069" lon="6.68279">
        <ele>1887</ele>
        <time>2017-03-26T22:01:35Z</time>
      </trkpt>
      <trkpt lat="44.57107" lon="6.68265">
        <ele>1878</ele>
        <time>2017-03-26T22:01:49Z</time>
      </trkpt>
      <trkpt lat="44.57145" lon="6.68218">
        <ele>1877</ele>
        <time>2017-03-26T22:01:56Z</time>
      </trkpt>
      <trkpt lat="44.57172" lon="6.68167">
        <ele>1870</ele>
        <time>2017-03-26T22:02:08Z</time>
      </trkpt>
      <trkpt lat="44.57169" lon="6.68069">
        <ele>1866</ele>
        <time>2017-03-26T22:02:23Z</time>
      </trkpt>
      <trkpt lat="44.572" lon="6.68004">
        <ele>1862</ele>
        <time>2017-03-26T22:02:32Z</time>
      </trkpt>
      <trkpt lat="44.57268" lon="6.68003">
        <ele>1855</ele>
        <time>2017-03-26T22:02:37Z</time>
      </trkpt>
      <trkpt lat="44.573" lon="6.68044">
        <ele>1853</ele>
        <time>2017-03-26T22:02:43Z</time>
      </trkpt>
      <trkpt lat="44.57351" lon="6.6819">
        <ele>1841</ele>
        <time>2017-03-26T22:02:48Z</time>
      </trkpt>
      <trkpt lat="44.57379" lon="6.682">
        <ele>1839</ele>
        <time>2017-03-26T22:02:52Z</time>
      </trkpt>
      <trkpt lat="44.57441" lon="6.68187">
        <ele>1832</ele>
        <time>2017-03-26T22:03:01Z</time>
      </trkpt>
      <trkpt lat="44.5749" lon="6.68182">
        <ele>1831</ele>
        <time>2017-03-26T22:03:04Z</time>
      </trkpt>
      <trkpt lat="44.57562" lon="6.68209">
        <ele>1824</ele>
        <time>2017-03-26T22:03:17Z</time>
      </trkpt>
      <trkpt lat="44.57656" lon="6.6821">
        <ele>1822</ele>
        <time>2017-03-26T22:03:29Z</time>
      </trkpt>
      <trkpt lat="44.57765" lon="6.68292">
        <ele>1804</ele>
        <time>2017-03-26T22:03:40Z</time>
      </trkpt>
      <trkpt lat="44.57812" lon="6.68286">
        <ele>1804</ele>
        <time>2017-03-26T22:03:54Z</time>
      </trkpt>
      <trkpt lat="44.57838" lon="6.68291">
        <ele>1805</ele>
        <time>2017-03-26T22:04:02Z</time>
      </trkpt>
      <trkpt lat="44.57863" lon="6.68329">
        <ele>1802</ele>
        <time>2017-03-26T22:04:22Z</time>
      </trkpt>
      <trkpt lat="44.57915" lon="6.6842">
        <ele>1787</ele>
        <time>2017-03-26T22:04:39Z</time>
      </trkpt>
      <trkpt lat="44.57989" lon="6.68438">
        <ele>1786</ele>
        <time>2017-03-26T22:04:56Z</time>
      </trkpt>
      <trkpt lat="44.58063" lon="6.68439">
        <ele>1780</ele>
        <time>2017-03-26T22:04:59Z</time>
      </trkpt>
      <trkpt lat="44.58212" lon="6.68348">
        <ele>1767</ele>
        <time>2017-03-26T22:05:19Z</time>
      </trkpt>
      <trkpt lat="44.5828" lon="6.68299">
        <ele>1770</ele>
        <time>2017-03-26T22:05:35Z</time>
      </trkpt>
      <trkpt lat="44.58334" lon="6.68278">
        <ele>1767</ele>
        <time>2017-03-26T22:05:50Z</time>
      </trkpt>
      <trkpt lat="44.58471" lon="6.68378">
        <ele>1754</ele>
        <time>2017-03-26T22:06:00Z</time>
      </trkpt>
      <trkpt lat="44.58597" lon="6.68551">
        <ele>1738</ele>
        <time>2017-03-26T22:06:13Z</time>
      </trkpt>
      <trkpt lat="44.58653" lon="6.68654">
        <ele>1721</ele>
        <time>2017-03-26T22:06:23Z</time>
      </trkpt>
      <trkpt lat="44.58861" lon="6.68768">
        <ele>1700</ele>
        <time>2017-03-26T22:06:42Z</time>
      </trkpt>
      <trkpt lat="44.58986" lon="6.68781">
        <ele>1692</ele>
        <time>2017-03-26T22:06:57Z</time>
      </trkpt>
      <trkpt lat="44.59083" lon="6.68779">
        <ele>1687</ele>
        <time>2017-03-26T22:07:13Z</time>
      </trkpt>
      <trkpt lat="44.59122" lon="6.68865">
        <ele>1676</ele>
        <time>2017-03-26T22:07:23Z</time>
      </trkpt>
      <trkpt lat="44.59173" lon="6.68884">
        <ele>1674</ele>
        <time>2017-03-26T22:07:25Z</time>
      </trkpt>
      <trkpt lat="44.59223" lon="6.68897">
        <ele>1672</ele>
        <time>2017-03-26T22:07:37Z</time>
      </trkpt>
      <trkpt lat="44.59273" lon="6.68937">
        <ele>1666</ele>
        <time>2017-03-26T22:07:54Z</time>
      </trkpt>
      <trkpt lat="44.59326" lon="6.68938">
        <ele>1664</ele>
        <time>2017-03-26T22:08:01Z</time>
      </trkpt>
      <trkpt lat="44.59413" lon="6.68955">
        <ele>1659</ele>
        <time>2017-03-26T22:08:07Z</time>
      </trkpt>
      <trkpt lat="44.59461" lon="6.68988">
        <ele>1656</ele>
        <time>2017-03-26T22:08:12Z</time>
      </trkpt>
      <trkpt lat="44.59533" lon="6.68991">
        <ele>1657</ele>
        <time>2017-03-26T22:08:19Z</time>
      </trkpt>
      <trkpt lat="44.59664" lon="6.68999">
        <ele>1661</ele>
        <time>2017-03-26T22:08:21Z</time>
      </trkpt>
      <trkpt lat="44.59851" lon="6.68973">
        <ele>1656</ele>
        <time>2017-03-26T22:08:29Z</time>
      </trkpt>
      <trkpt lat="44.59952" lon="6.68988">
        <ele>1655</ele>
        <time>2017-03-26T22:08:47Z</time>
      </trkpt>
      <trkpt lat="44.60008" lon="6.68978">
        <ele>1655</ele>
        <time>2017-03-26T22:08:51Z</time>
      </trkpt>
      <trkpt lat="44.60178" lon="6.68903">
        <ele>1645</ele>
        <time>2017-03-26T22:09:03Z</time>
      </trkpt>
      <trkpt lat="44.60227" lon="6.689">
        <ele>1643</ele>
        <time>2017-03-26T22:09:23Z</time>
      </trkpt>
      <trkpt lat="44.60289" lon="6.68896">
        <ele>1641</ele>
        <time>2017-03-26T22:09:40Z</time>
      </trkpt>
      <trkpt lat="44.60333" lon="6.68863">
        <ele>1636</ele>
        <time>2017-03-26T22:09:50Z</time>
      </trkpt>
      <trkpt lat="44.6038" lon="6.6886">
        <ele>1633</ele>
        <time>2017-03-26T22:10:02Z</time>
      </trkpt>
      <trkpt lat="44.60462" lon="6.68896">
        <ele>1630</ele>
        <time>2017-03-26T22:10:22Z</time>
      </trkpt>
      <trkpt lat="44.60517" lon="6.68938">
        <ele>1639</ele>
        <time>2017-03-26T22:10:35Z</time>
      </trkpt>
      <trkpt lat="44.60758" lon="6.68836">
        <ele>1634</ele>
        <time>2017-03-26T22:10:44Z</time>
      </trkpt>
      <trkpt lat="44.60853" lon="6.68837">
        <ele>1640</ele>
        <time>2017-03-26T22:10:57Z</time>
      </trkpt>
      <trkpt lat="44.60902" lon="6.6885">
        <ele>1642</ele>
        <time>2017-03-26T22:11:03Z</time>
      </trkpt>
      <trkpt lat="44.60986" lon="6.68849">
        <ele>1646</ele>
        <time>2017-03-26T22:11:17Z</time>
      </trkpt>
      <trkpt lat="44.61013" lon="6.68804">
        <ele>1639</ele>
        <time>2017-03-26T22:11:27Z</time>
      </trkpt>
      <trkpt lat="44.61042" lon="6.688">
        <ele>1638</ele>
        <time>2017-03-26T22:11:45Z</time>
      </trkpt>
      <trkpt lat="44.61199" lon="6.68724">
        <ele>1639</ele>
        <time>2017-03-26T22:11:49Z</time>
      </trkpt>
      <trkpt lat="44.61319" lon="6.68692">
        <ele>1640</ele>
        <time>2017-03-26T22:12:07Z</time>
      </trkpt>
      <trkpt lat="44.61396" lon="6.68599">
        <ele>1639</ele>
        <time>2017-03-26T22:12:26Z</time>
      </trkpt>
      <trkpt lat="44.61481" lon="6.68568">
        <ele>1642</ele>
        <time>2017-03-26T22:12:46Z</time>
      </trkpt>
      <trkpt lat="44.61566" lon="6.68577">
        <ele>1647</ele>
        <time>2017-03-26T22:12:58Z</time>
      </trkpt>
      <trkpt lat="44.61683" lon="6.68527">
        <ele>1663</ele>
        <time>2017-03-26T22:13:02Z</time>
      </trkpt>
      <trkpt lat="44.61794" lon="6.68431">
        <ele>1658</ele>
        <time>2017-03-26T22:13:21Z</time>
      </trkpt>
      <trkpt lat="44.61878" lon="6.68392">
        <ele>1650</ele>
        <time>2017-03-26T22:13:26Z</time>
      </trkpt>
      <trkpt lat="44.61946" lon="6.6837">
        <ele>1649</ele>
        <time>2017-03-26T22:13:28Z</time>
      </trkpt>
      <trkpt lat="44.61977" lon="6.68361">
        <ele>1647</ele>
        <time>2017-03-26T22:13:33Z</time>
      </trkpt>
      <trkpt lat="44.62044" lon="6.68397">
        <ele>1646</ele>
        <time>2017-03-26T22:13:35Z</time>
      </trkpt>
      <trkpt lat="44.62109" lon="6.68402">
        <ele>1646</ele>
        <time>2017-03-26T22:13:54Z</time>
      </trkpt>
      <trkpt lat="44.6214" lon="6.68351">
        <ele>1641</ele>
        <time>2017-03-26T22:14:14Z</time>
      </trkpt>
      <trkpt lat="44.62192" lon="6.68294">
        <ele>1621</ele>
        <time>2017-03-26T22:14:29Z</time>
      </trkpt>
      <trkpt lat="44.62313" lon="6.68313">
        <ele>1624</ele>
        <time>2017-03-26T22:14:45Z</time>
      </trkpt>
      <trkpt lat="44.62433" lon="6.68341">
        <ele>1635</ele>
        <time>2017-03-26T22:14:52Z</time>
      </trkpt>
      <trkpt lat="44.62487" lon="6.68312">
        <ele>1624</ele>
        <time>2017-03-26T22:14:57Z</time>
      </trkpt>
      <trkpt lat="44.62569" lon="6.68163">
        <ele>1623</ele>
        <time>2017-03-26T22:15:01Z</time>
      </trkpt>
      <trkpt lat="44.62565" lon="6.68069">
        <ele>1599</ele>
        <time>2017-03-26T22:15:05Z</time>
      </trkpt>
      <trkpt lat="44.62627" lon="6.68014">
        <ele>1616</ele>
        <time>2017-03-26T22:15:22Z</time>
      </trkpt>
      <trkpt lat="44.6268" lon="6.68004">
        <ele>1619</ele>
        <time>2017-03-26T22:15:24Z</time>
      </trkpt>
      <trkpt lat="44.62732" lon="6.68022">
        <ele>1617</ele>
        <time>2017-03-26T22:15:31Z</time>
      </trkpt>
      <trkpt lat="44.62782" lon="6.68111">
        <ele>1634</ele>
        <time>2017-03-26T22:15:50Z</time>
      </trkpt>
      <trkpt lat="44.62803" lon="6.68107">
        <ele>1632</ele>
        <time>2017-03-26T22:15:52Z</time>
      </trkpt>
      <trkpt lat="44.62864" lon="6.68045">
        <ele>1614</ele>
        <time>2017-03-26T22:16:11Z</time>
      </trkpt>
      <trkpt lat="44.62929" lon="6.67913">
        <ele>1583</ele>
        <time>2017-03-26T22:16:16Z</time>
      </trkpt>
      <trkpt lat="44.63026" lon="6.67798">
        <ele>1577</ele>
        <time>2017-03-26T22:16:23Z</time>
      </trkpt>
      <trkpt lat="44.63081" lon="6.67745">
        <ele>1566</ele>
        <time>2017-03-26T22:16:37Z</time>
      </trkpt>
      <trkpt lat="44.6312" lon="6.67739">
        <ele>1567</ele>
        <time>2017-03-26T22:16:54Z</time>
      </trkpt>
      <trkpt lat="44.63159" lon="6.67694">
        <ele>1562</ele>
        <time>2017-03-26T22:17:06Z</time>
      </trkpt>
      <trkpt lat="44.63209" lon="6.67659">
        <ele>1548</ele>
        <time>2017-03-26T22:17:16Z</time>
      </trkpt>
      <trkpt lat="44.63249" lon="6.67663">
        <ele>1557</ele>
        <time>2017-03-26T22:17:33Z</time>
      </trkpt>
      <trkpt lat="44.63297" lon="6.67678">
        <ele>1563</ele>
        <time>2017-03-26T22:17:35Z</time>
      </trkpt>
      <trkpt lat="44.63345" lon="6.67659">
        <ele>1546</ele>
        <time>2017-03-26T22:17:41Z</time>
      </trkpt>
      <trkpt lat="44.63466" lon="6.67478">
        <ele>1520</ele>
        <time>2017-03-26T22:17:43Z</time>
      </trkpt>
      <trkpt lat="44.63465" lon="6.67351">
        <ele>1514</ele>
        <time>2017-03-26T22:18:00Z</time>
      </trkpt>
      <trkpt lat="44.63415" lon="6.6725">
        <ele>1510</ele>
        <time>2017-03-26T22:18:13Z</time>
      </trkpt>
      <trkpt lat="44.63371" lon="6.67203">
        <ele>1507</ele>
        <time>2017-03-26T22:18:25Z</time>
      </trkpt>
      <trkpt lat="44.63328" lon="6.67193">
        <ele>1483</ele>
        <time>2017-03-26T22:18:44Z</time>
      </trkpt>
      <trkpt lat="44.6331" lon="6.67177">
        <ele>1483</ele>
        <time>2017-03-26T22:18:46Z</time>
      </trkpt>
      <trkpt lat="44.63305" lon="6.6715">
        <ele>1487</ele>
        <time>2017-03-26T22:19:03Z</time>
      </trkpt>
      <trkpt lat="44.63322" lon="6.67103">
        <ele>1490</ele>
        <time>2017-03-26T22:19:06Z</time>
      </trkpt>
      <trkpt lat="44.63486" lon="6.66973">
        <ele>1485</ele>
        <time>2017-03-26T22:19:16Z</time>
      </trkpt>
      <trkpt lat="44.63593" lon="6.66991">
        <ele>1481</ele>
        <time>2017-03-26T22:19:31Z</time>
      </trkpt>
      <trkpt lat="44.63667" lon="6.66998">
        <ele>1474</ele>
        <time>2017-03-26T22:19:39Z</time>
      </trkpt>
      <trkpt lat="44.63755" lon="6.66984">
        <ele>1455</ele>
        <time>2017-03-26T22:19:53Z</time>
      </trkpt>
      <trkpt lat="44.63772" lon="6.6695">
        <ele>1449</ele>
        <time>2017-03-26T22:20:08Z</time>
      </trkpt>
      <trkpt lat="44.6375" lon="6.66934">
        <ele>1452</ele>
        <time>2017-03-26T22:20:21Z</time>
      </trkpt>
      <trkpt lat="44.63686" lon="6.66932">
        <ele>1460</ele>
        <time>2017-03-26T22:20:30Z</time>
      </trkpt>
      <trkpt lat="44.63624" lon="6.66889">
        <ele>1456</ele>
        <time>2017-03-26T22:20:40Z</time>
      </trkpt>
      <trkpt lat="44.63615" lon="6.66861">
        <ele>1454</ele>
        <time>2017-03-26T22:20:58Z</time>
      </trkpt>
      <trkpt lat="44.63627" lon="6.6684">
        <ele>1452</ele>
        <time>2017-03-26T22:21:03Z</time>
      </trkpt>
      <trkpt lat="44.63689" lon="6.66852">
        <ele>1449</ele>
        <time>2017-03-26T22:21:07Z</time>
      </trkpt>
      <trkpt lat="44.63835" lon="6.66792">
        <ele>1435</ele>
        <time>2017-03-26T22:21:13Z</time>
      </trkpt>
      <trkpt lat="44.63883" lon="6.66733">
        <ele>1424</ele>
        <time>2017-03-26T22:21:28Z</time>
      </trkpt>
      <trkpt lat="44.6391" lon="6.6673">
        <ele>1425</ele>
        <time>2017-03-26T22:21:44Z</time>
      </trkpt>
      <trkpt lat="44.63993" lon="6.66734">
        <ele>1422</ele>
        <time>2017-03-26T22:21:57Z</time>
      </trkpt>
      <trkpt lat="44.63992" lon="6.66701">
        <ele>1418</ele>
        <time>2017-03-26T22:22:03Z</time>
      </trkpt>
      <trkpt lat="44.63796" lon="6.66616">
        <ele>1392</ele>
        <time>2017-03-26T22:22:08Z</time>
      </trkpt>
      <trkpt lat="44.63747" lon="6.66619">
        <ele>1378</ele>
        <time>2017-03-26T22:22:23Z</time>
      </trkpt>
      <trkpt lat="44.63733" lon="6.66601">
        <ele>1375</ele>
        <time>2017-03-26T22:22:43Z</time>
      </trkpt>
      <trkpt lat="44.63744" lon="6.66576">
        <ele>1365</ele>
        <time>2017-03-26T22:22:55Z</time>
      </trkpt>
      <trkpt lat="44.63825" lon="6.66575">
        <ele>1375</ele>
        <time>2017-03-26T22:23:08Z</time>
      </trkpt>
      <trkpt lat="44.6395" lon="6.66551">
        <ele>1366</ele>
        <time>2017-03-26T22:23:27Z</time>
      </trkpt>
      <trkpt lat="44.64025" lon="6.66578">
        <ele>1365</ele>
        <time>2017-03-26T22:23:33Z</time>
      </trkpt>
      <trkpt lat="44.64113" lon="6.66527">
        <ele>1353</ele>
        <time>2017-03-26T22:23:38Z</time>
      </trkpt>
      <trkpt lat="44.64164" lon="6.66378">
        <ele>1323</ele>
        <time>2017-03-26T22:23:45Z</time>
      </trkpt>
      <trkpt lat="44.64182" lon="6.66341">
        <ele>1326</ele>
        <time>2017-03-26T22:23:47Z</time>
      </trkpt>
      <trkpt lat="44.64221" lon="6.66335">
        <ele>1325</ele>
        <time>2017-03-26T22:23:49Z</time>
      </trkpt>
      <trkpt lat="44.64296" lon="6.66308">
        <ele>1305</ele>
        <time>2017-03-26T22:24:04Z</time>
      </trkpt>
      <trkpt lat="44.64328" lon="6.66282">
        <ele>1303</ele>
        <time>2017-03-26T22:24:23Z</time>
      </trkpt>
      <trkpt lat="44.64318" lon="6.66234">
        <ele>1292</ele>
        <time>2017-03-26T22:24:41Z</time>
      </trkpt>
      <trkpt lat="44.64245" lon="6.6625">
        <ele>1299</ele>
        <time>2017-03-26T22:24:54Z</time>
      </trkpt>
      <trkpt lat="44.6417" lon="6.6627">
        <ele>1304</ele>
        <time>2017-03-26T22:24:57Z</time>
      </trkpt>
      <trkpt lat="44.64122" lon="6.66266">
        <ele>1292</ele>
        <time>2017-03-26T22:25:06Z</time>
      </trkpt>
      <trkpt lat="44.6411" lon="6.66237">
        <ele>1276</ele>
        <time>2017-03-26T22:25:22Z</time>
      </trkpt>
      <trkpt lat="44.64119" lon="6.66212">
        <ele>1276</ele>
        <time>2017-03-26T22:25:34Z</time>
      </trkpt>
      <trkpt lat="44.64144" lon="6.66206">
        <ele>1277</ele>
        <time>2017-03-26T22:25:41Z</time>
      </trkpt>
      <trkpt lat="44.64235" lon="6.66213">
        <ele>1285</ele>
        <time>2017-03-26T22:25:53Z</time>
      </trkpt>
      <trkpt lat="44.64306" lon="6.66171">
        <ele>1282</ele>
        <time>2017-03-26T22:25:58Z</time>
      </trkpt>
      <trkpt lat="44.64319" lon="6.66082">
        <ele>1256</ele>
        <time>2017-03-26T22:26:04Z</time>
      </trkpt>
      <trkpt lat="44.64395" lon="6.65953">
        <ele>1240</ele>
        <time>2017-03-26T22:26:20Z</time>
      </trkpt>
      <trkpt lat="44.64519" lon="6.65834">
        <ele>1219</ele>
        <time>2017-03-26T22:26:25Z</time>
      </trkpt>
      <trkpt lat="44.64591" lon="6.65693">
        <ele>1206</ele>
        <time>2017-03-26T22:26:45Z</time>
      </trkpt>
      <trkpt lat="44.64587" lon="6.65657">
        <ele>1206</ele>
        <time>2017-03-26T22:26:56Z</time>
      </trkpt>
      <trkpt lat="44.64561" lon="6.65648">
        <ele>1203</ele>
        <time>2017-03-26T22:27:07Z</time>
      </trkpt>
      <trkpt lat="44.64451" lon="6.65695">
        <ele>1211</ele>
        <time>2017-03-26T22:27:27Z</time>
      </trkpt>
      <trkpt lat="44.64383" lon="6.65738">
        <ele>1206</ele>
        <time>2017-03-26T22:27:46Z</time>
      </trkpt>
      <trkpt lat="44.6437" lon="6.65729">
        <ele>1204</ele>
        <time>2017-03-26T22:28:06Z</time>
      </trkpt>
      <trkpt lat="44.64385" lon="6.65685">
        <ele>1201</ele>
        <time>2017-03-26T22:28:26Z</time>
      </trkpt>
      <trkpt lat="44.6444" lon="6.65658">
        <ele>1196</ele>
        <time>2017-03-26T22:28:38Z</time>
      </trkpt>
      <trkpt lat="44.64539" lon="6.65566">
        <ele>1178</ele>
        <time>2017-03-26T22:28:53Z</time>
      </trkpt>
      <trkpt lat="44.64576" lon="6.65545">
        <ele>1176</ele>
        <time>2017-03-26T22:28:56Z</time>
      </trkpt>
      <trkpt lat="44.64653" lon="6.65557">
        <ele>1177</ele>
        <time>2017-03-26T22:29:14Z</time>
      </trkpt>
      <trkpt lat="44.64742" lon="6.65556">
        <ele>1169</ele>
        <time>2017-03-26T22:29:31Z</time>
      </trkpt>
      <trkpt lat="44.64863" lon="6.65524">
        <ele>1148</ele>
        <time>2017-03-26T22:29:44Z</time>
      </trkpt>
      <trkpt lat="44.64977" lon="6.65462">
        <ele>1137</ele>
        <time>2017-03-26T22:29:50Z</time>
      </trkpt>
      <trkpt lat="44.64997" lon="6.65444">
        <ele>1137</ele>
        <time>2017-03-26T22:30:08Z</time>
      </trkpt>
      <trkpt lat="44.65011" lon="6.65389">
        <ele>1135</ele>
        <time>2017-03-26T22:30:20Z</time>
      </trkpt>
      <trkpt lat="44.65018" lon="6.65293">
        <ele>1126</ele>
        <time>2017-03-26T22:30:25Z</time>
      </trkpt>
      <trkpt lat="44.6506" lon="6.65223">
        <ele>1119</ele>
        <time>2017-03-26T22:30:37Z</time>
      </trkpt>
      <trkpt lat="44.65059" lon="6.65169">
        <ele>1116</ele>
        <time>2017-03-26T22:30:39Z</time>
      </trkpt>
      <trkpt lat="44.65048" lon="6.65104">
        <ele>1099</ele>
        <time>2017-03-26T22:30:59Z</time>
      </trkpt>
      <trkpt lat="44.65062" lon="6.65064">
        <ele>1088</ele>
        <time>2017-03-26T22:31:10Z</time>
      </trkpt>
      <trkpt lat="44.65093" lon="6.65049">
        <ele>1096</ele>
        <time>2017-03-26T22:31:25Z</time>
      </trkpt>
      <trkpt lat="44.6514" lon="6.65059">
        <ele>1098</ele>
        <time>2017-03-26T22:31:38Z</time>
      </trkpt>
      <trkpt lat="44.65234" lon="6.65019">
        <ele>1096</ele>
        <time>2017-03-26T22:31:47Z</time>
      </trkpt>
      <trkpt lat="44.65283" lon="6.64987">
        <ele>1073</ele>
        <time>2017-03-26T22:31:56Z</time>
      </trkpt>
      <trkpt lat="44.65303" lon="6.64996">
        <ele>1073</ele>
        <time>2017-03-26T22:32:02Z</time>
      </trkpt>
      <trkpt lat="44.6534" lon="6.65182">
        <ele>1079</ele>
        <time>2017-03-26T22:32:04Z</time>
      </trkpt>
      <trkpt lat="44.65366" lon="6.65213">
        <ele>1074</ele>
        <time>2017-03-26T22:32:08Z</time>
      </trkpt>
      <trkpt lat="44.65396" lon="6.65203">
        <ele>1071</ele>
        <time>2017-03-26T22:32:10Z</time>
      </trkpt>
      <trkpt lat="44.65428" lon="6.65145">
        <ele>1060</ele>
        <time>2017-03-26T22:32:30Z</time>
      </trkpt>
      <trkpt lat="44.6543" lon="6.65064">
        <ele>1060</ele>
        <time>2017-03-26T22:32:50Z</time>
      </trkpt>
      <trkpt lat="44.65383" lon="6.65006">
        <ele>1070</ele>
        <time>2017-03-26T22:32:58Z</time>
      </trkpt>
      <trkpt lat="44.65383" lon="6.64966">
        <ele>1057</ele>
        <time>2017-03-26T22:33:08Z</time>
      </trkpt>
      <trkpt lat="44.65438" lon="6.64968">
        <ele>1047</ele>
        <time>2017-03-26T22:33:13Z</time>
      </trkpt>
      <trkpt lat="44.65498" lon="6.64977">
        <ele>1045</ele>
        <time>2017-03-26T22:33:24Z</time>
      </trkpt>
      <trkpt lat="44.65558" lon="6.65081">
        <ele>1037</ele>
        <time>2017-03-26T22:33:29Z</time>
      </trkpt>
      <trkpt lat="44.65543" lon="6.65134">
        <ele>1036</ele>
        <time>2017-03-26T22:33:34Z</time>
      </trkpt>
      <trkpt lat="44.65491" lon="6.65181">
        <ele>1046</ele>
        <time>2017-03-26T22:33:40Z</time>
      </trkpt>
      <trkpt lat="44.65485" lon="6.6519">
        <ele>1047</ele>
        <time>2017-03-26T22:33:59Z</time>
      </trkpt>
      <trkpt lat="44.65514" lon="6.65226">
        <ele>1034</ele>
        <time>2017-03-26T22:34:09Z</time>
      </trkpt>
      <trkpt lat="44.65538" lon="6.65255">
        <ele>1035</ele>
        <time>2017-03-26T22:34:18Z</time>
      </trkpt>
      <trkpt lat="44.65574" lon="6.6526">
        <ele>1032</ele>
        <time>2017-03-26T22:34:32Z</time>
      </trkpt>
      <trkpt lat="44.65681" lon="6.65178">
        <ele>1022</ele>
        <time>2017-03-26T22:34:43Z</time>
      </trkpt>
      <trkpt lat="44.65686" lon="6.65152">
        <ele>1018</ele>
        <time>2017-03-26T22:34:59Z</time>
      </trkpt>
      <trkpt lat="44.65771" lon="6.65076">
        <ele>1011</ele>
        <time>2017-03-26T22:35:15Z</time>
      </trkpt>
      <trkpt lat="44.6584" lon="6.65002">
        <ele>1006</ele>
        <time>2017-03-26T22:35:21Z</time>
      </trkpt>
      <trkpt lat="44.65842" lon="6.64982">
        <ele>1005</ele>
        <time>2017-03-26T22:35:37Z</time>
      </trkpt>
    </trkseg>
  </trk>
</gpx>